<?xml version='1.0' encoding='UTF-8'?><gpx version="1.1" creator="JPX - https://github.com/jenetics/jpx" xmlns="http://www.topografix.com/GPX/1/1"><trk><trkseg><trkpt lat="51.0420167587595" lon="2.378302502083835"><ele>5.0</ele><time>2026-03-23T18:41:08Z</time></trkpt><trkpt lat="51.04197297696328" lon="2.378376707369304"><ele>5.0</ele><time>2026-03-23T18:41:11Z</time></trkpt><trkpt lat="51.041905873648254" lon="2.378328727304656"><ele>5.0</ele><time>2026-03-23T18:41:21Z</time></trkpt><trkpt lat="51.04184924303731" lon="2.378251320356799"><ele>5.0</ele><time>2026-03-23T18:41:23Z</time></trkpt><trkpt lat="51.04177616639871" lon="2.3782447492738603"><ele>5.0</ele><time>2026-03-23T18:41:25Z</time></trkpt><trkpt lat="51.04169400749457" lon="2.378275644865731"><ele>5.0</ele><time>2026-03-23T18:41:27Z</time></trkpt><trkpt lat="51.041618310641745" lon="2.378313598797936"><ele>5.0</ele><time>2026-03-23T18:41:29Z</time></trkpt><trkpt lat="51.04153721308462" lon="2.3783367626455183"><ele>4.833333333333334</ele><time>2026-03-23T18:41:31Z</time></trkpt><trkpt lat="51.041438068945496" lon="2.378284997088911"><ele>4.666666666666667</ele><time>2026-03-23T18:41:33Z</time></trkpt><trkpt lat="51.04135238861711" lon="2.3783278375818298"><ele>4.5</ele><time>2026-03-23T18:41:36Z</time></trkpt><trkpt lat="51.04127517354648" lon="2.3783783513524277"><ele>4.333333333333333</ele><time>2026-03-23T18:41:39Z</time></trkpt><trkpt lat="51.04120524453623" lon="2.3783639417813625"><ele>4.166666666666666</ele><time>2026-03-23T18:41:42Z</time></trkpt><trkpt lat="51.04114326617426" lon="2.3783834964513115"><ele>4.0</ele><time>2026-03-23T18:41:45Z</time></trkpt><trkpt lat="51.04106727828015" lon="2.3783216558309257"><ele>3.9999999999999996</ele><time>2026-03-23T18:41:49Z</time></trkpt><trkpt lat="51.04102873532781" lon="2.3782411237385945"><ele>4.0</ele><time>2026-03-23T18:41:52Z</time></trkpt><trkpt lat="51.04096304550174" lon="2.378237106423116"><ele>4.0</ele><time>2026-03-23T18:41:54.999Z</time></trkpt><trkpt lat="51.04088749288404" lon="2.3782993802172996"><ele>4.0</ele><time>2026-03-23T18:41:57.999Z</time></trkpt><trkpt lat="51.04081421735112" lon="2.3783285975718647"><ele>3.9999999999999996</ele><time>2026-03-23T18:42:00.999Z</time></trkpt><trkpt lat="51.040722391924035" lon="2.378332941600094"><ele>4.0</ele><time>2026-03-23T18:42:03.999Z</time></trkpt><trkpt lat="51.040637029945266" lon="2.3783454900605627"><ele>4.166666666666666</ele><time>2026-03-23T18:42:06.999Z</time></trkpt><trkpt lat="51.040547930354485" lon="2.378335677553455"><ele>4.333333333333333</ele><time>2026-03-23T18:42:09.999Z</time></trkpt><trkpt lat="51.040463226946116" lon="2.378326800678915"><ele>4.5</ele><time>2026-03-23T18:42:12.999Z</time></trkpt><trkpt lat="51.040386857469876" lon="2.3783196156436435"><ele>4.666666666666667</ele><time>2026-03-23T18:42:15.999Z</time></trkpt><trkpt lat="51.0403144912673" lon="2.3783252594593267"><ele>4.833333333333334</ele><time>2026-03-23T18:42:18.999Z</time></trkpt><trkpt lat="51.040250732964196" lon="2.3783074286287267"><ele>5.0</ele><time>2026-03-23T18:42:21.999Z</time></trkpt><trkpt lat="51.04018836254661" lon="2.378283053558163"><ele>5.0</ele><time>2026-03-23T18:42:24.999Z</time></trkpt><trkpt lat="51.04011707212077" lon="2.3782595750179008"><ele>5.0</ele><time>2026-03-23T18:42:27.999Z</time></trkpt><trkpt lat="51.040051846337875" lon="2.378249524033803"><ele>5.0</ele><time>2026-03-23T18:42:30.999Z</time></trkpt><trkpt lat="51.03997685253105" lon="2.3782125819174142"><ele>5.0</ele><time>2026-03-23T18:42:33.999Z</time></trkpt><trkpt lat="51.03990577829842" lon="2.3782171196501443"><ele>5.0</ele><time>2026-03-23T18:42:37.999Z</time></trkpt><trkpt lat="51.03981831263678" lon="2.3781674191518714"><ele>5.0</ele><time>2026-03-23T18:42:41.999Z</time></trkpt><trkpt lat="51.03975371606493" lon="2.37818775419867"><ele>5.0</ele><time>2026-03-23T18:42:45.999Z</time></trkpt><trkpt lat="51.0397404565246" lon="2.378072318487691"><ele>5.166666666666667</ele><time>2026-03-23T18:42:46.999Z</time></trkpt><trkpt lat="51.03967128910569" lon="2.378079247357436"><ele>5.333333333333334</ele><time>2026-03-23T18:42:51.999Z</time></trkpt><trkpt lat="51.03957491523506" lon="2.378040019190934"><ele>5.5</ele><time>2026-03-23T18:42:55.999Z</time></trkpt><trkpt lat="51.039537681222534" lon="2.3779564805281908"><ele>5.666666666666667</ele><time>2026-03-23T18:42:57.999Z</time></trkpt><trkpt lat="51.03946250492437" lon="2.377883492435477"><ele>5.833333333333333</ele><time>2026-03-23T18:43:00.999Z</time></trkpt><trkpt lat="51.03938168757073" lon="2.3777953644861816"><ele>6.0</ele><time>2026-03-23T18:43:04.998Z</time></trkpt><trkpt lat="51.039296178752245" lon="2.377740562943505"><ele>6.0</ele><time>2026-03-23T18:43:07.998Z</time></trkpt><trkpt lat="51.03922891008981" lon="2.3776769847722496"><ele>6.0</ele><time>2026-03-23T18:43:10.998Z</time></trkpt><trkpt lat="51.03915321009669" lon="2.377608939520246"><ele>6.0</ele><time>2026-03-23T18:43:15Z</time></trkpt><trkpt lat="51.03910932431683" lon="2.377535831681812"><ele>6.0</ele><time>2026-03-23T18:43:18Z</time></trkpt><trkpt lat="51.03908312452009" lon="2.377438504107042"><ele>6.0</ele><time>2026-03-23T18:43:20Z</time></trkpt><trkpt lat="51.03903571273175" lon="2.3773174116841327"><ele>6.0</ele><time>2026-03-23T18:43:23Z</time></trkpt><trkpt lat="51.038981592272734" lon="2.3772174732200555"><ele>6.142857142857142</ele><time>2026-03-23T18:43:26Z</time></trkpt><trkpt lat="51.0389328553571" lon="2.3771236688553032"><ele>6.285714285714286</ele><time>2026-03-23T18:43:28Z</time></trkpt><trkpt lat="51.03888550530416" lon="2.3770291509529864"><ele>6.428571428571429</ele><time>2026-03-23T18:43:30Z</time></trkpt><trkpt lat="51.038847979714305" lon="2.3769064940528386"><ele>6.571428571428571</ele><time>2026-03-23T18:43:33Z</time></trkpt><trkpt lat="51.038808131004146" lon="2.3768115636296763"><ele>6.714285714285714</ele><time>2026-03-23T18:43:35Z</time></trkpt><trkpt lat="51.03878126574643" lon="2.376717218928769"><ele>6.857142857142857</ele><time>2026-03-23T18:43:37Z</time></trkpt><trkpt lat="51.03876614506905" lon="2.3766183791528745"><ele>7.0</ele><time>2026-03-23T18:43:39Z</time></trkpt><trkpt lat="51.03874704543021" lon="2.3765210436381707"><ele>7.000000000000001</ele><time>2026-03-23T18:43:41Z</time></trkpt><trkpt lat="51.03871978227514" lon="2.376428751793765"><ele>7.0</ele><time>2026-03-23T18:43:43Z</time></trkpt><trkpt lat="51.03868416485831" lon="2.376326798541458"><ele>7.0</ele><time>2026-03-23T18:43:46Z</time></trkpt><trkpt lat="51.03864501590109" lon="2.3762211747081605"><ele>7.0</ele><time>2026-03-23T18:43:48Z</time></trkpt><trkpt lat="51.038585808775316" lon="2.3760767242681005"><ele>7.000000000000001</ele><time>2026-03-23T18:43:50Z</time></trkpt><trkpt lat="51.03853619536729" lon="2.375906420584705"><ele>7.0</ele><time>2026-03-23T18:43:52Z</time></trkpt><trkpt lat="51.038505592743654" lon="2.375812331574092"><ele>7.000000000000001</ele><time>2026-03-23T18:43:53Z</time></trkpt><trkpt lat="51.03847164048461" lon="2.375720339820358"><ele>7.0</ele><time>2026-03-23T18:43:53.999Z</time></trkpt><trkpt lat="51.0384398854122" lon="2.375627407272552"><ele>7.0</ele><time>2026-03-23T18:43:54.999Z</time></trkpt><trkpt lat="51.03840555188673" lon="2.3754698324846952"><ele>7.0</ele><time>2026-03-23T18:43:56.999Z</time></trkpt><trkpt lat="51.038348462540036" lon="2.3753420164648342"><ele>7.000000000000001</ele><time>2026-03-23T18:43:58.999Z</time></trkpt><trkpt lat="51.03829021157975" lon="2.375235979334316"><ele>7.0</ele><time>2026-03-23T18:44:00.999Z</time></trkpt><trkpt lat="51.03825337399872" lon="2.375129749218079"><ele>7.000000000000001</ele><time>2026-03-23T18:44:02.999Z</time></trkpt><trkpt lat="51.03821191859019" lon="2.3750502784634997"><ele>7.0</ele><time>2026-03-23T18:44:04.999Z</time></trkpt><trkpt lat="51.038145201407396" lon="2.3749443674212687"><ele>7.0</ele><time>2026-03-23T18:44:07.999Z</time></trkpt><trkpt lat="51.038099412057555" lon="2.3748538086437034"><ele>7.0</ele><time>2026-03-23T18:44:10.999Z</time></trkpt><trkpt lat="51.038052893403844" lon="2.374719028205714"><ele>7.000000000000001</ele><time>2026-03-23T18:44:13.999Z</time></trkpt><trkpt lat="51.03799815081642" lon="2.3746590860687284"><ele>7.0</ele><time>2026-03-23T18:44:15.999Z</time></trkpt><trkpt lat="51.03794879649518" lon="2.3745827409217357"><ele>6.428571428571429</ele><time>2026-03-23T18:44:17.999Z</time></trkpt><trkpt lat="51.03790555408244" lon="2.374492160361157"><ele>5.857142857142857</ele><time>2026-03-23T18:44:19.999Z</time></trkpt><trkpt lat="51.03786273841512" lon="2.374411173535532"><ele>5.285714285714286</ele><time>2026-03-23T18:44:21.999Z</time></trkpt><trkpt lat="51.0378192402148" lon="2.374331782319425"><ele>4.714285714285714</ele><time>2026-03-23T18:44:23.999Z</time></trkpt><trkpt lat="51.03777845941441" lon="2.374232421718635"><ele>4.142857142857142</ele><time>2026-03-23T18:44:26.999Z</time></trkpt><trkpt lat="51.03771472523252" lon="2.3741440261926403"><ele>3.571428571428571</ele><time>2026-03-23T18:44:29.999Z</time></trkpt><trkpt lat="51.037659384938515" lon="2.374059891764405"><ele>3.0</ele><time>2026-03-23T18:44:32.999Z</time></trkpt><trkpt lat="51.03760973660812" lon="2.373962417055703"><ele>3.0</ele><time>2026-03-23T18:44:35.999Z</time></trkpt><trkpt lat="51.03755196042697" lon="2.373872760252615"><ele>3.0</ele><time>2026-03-23T18:44:38.999Z</time></trkpt><trkpt lat="51.03747699422331" lon="2.3737828073974905"><ele>3.0</ele><time>2026-03-23T18:44:41.999Z</time></trkpt><trkpt lat="51.03740238867399" lon="2.3737371734493933"><ele>3.0</ele><time>2026-03-23T18:44:44.999Z</time></trkpt><trkpt lat="51.03731747285887" lon="2.3736800752509923"><ele>3.0</ele><time>2026-03-23T18:44:47.999Z</time></trkpt><trkpt lat="51.037239712721906" lon="2.3736109038588866"><ele>3.0</ele><time>2026-03-23T18:44:51.999Z</time></trkpt><trkpt lat="51.03716281492789" lon="2.3735216044394054"><ele>3.1666666666666665</ele><time>2026-03-23T18:44:53.999Z</time></trkpt><trkpt lat="51.037080312071765" lon="2.3734329252736903"><ele>3.333333333333333</ele><time>2026-03-23T18:44:55.999Z</time></trkpt><trkpt lat="51.03699790571869" lon="2.373352185406631"><ele>3.5</ele><time>2026-03-23T18:44:57.999Z</time></trkpt><trkpt lat="51.036921630154815" lon="2.373279648065379"><ele>3.6666666666666665</ele><time>2026-03-23T18:44:59.999Z</time></trkpt><trkpt lat="51.036854441818534" lon="2.373237951733801"><ele>3.833333333333333</ele><time>2026-03-23T18:45:01.999Z</time></trkpt><trkpt lat="51.036778605193525" lon="2.373200582069204"><ele>4.0</ele><time>2026-03-23T18:45:04.999Z</time></trkpt><trkpt lat="51.0367150175836" lon="2.373132441263318"><ele>3.9999999999999996</ele><time>2026-03-23T18:45:07.998Z</time></trkpt><trkpt lat="51.03664616132371" lon="2.3730908884808053"><ele>4.0</ele><time>2026-03-23T18:45:10.998Z</time></trkpt><trkpt lat="51.036564632418205" lon="2.3730860734383845"><ele>4.0</ele><time>2026-03-23T18:45:13.998Z</time></trkpt><trkpt lat="51.036488896012635" lon="2.3730575254386324"><ele>4.0</ele><time>2026-03-23T18:45:15.998Z</time></trkpt><trkpt lat="51.03644280675459" lon="2.3729890576219823"><ele>3.9999999999999996</ele><time>2026-03-23T18:45:16.998Z</time></trkpt><trkpt lat="51.036361154358715" lon="2.3729394880881394"><ele>4.0</ele><time>2026-03-23T18:45:19Z</time></trkpt><trkpt lat="51.036304979299096" lon="2.3728403350686618"><ele>5.166666666666666</ele><time>2026-03-23T18:45:21Z</time></trkpt><trkpt lat="51.0362414805319" lon="2.372794667025418"><ele>6.333333333333333</ele><time>2026-03-23T18:45:24Z</time></trkpt><trkpt lat="51.03614233224224" lon="2.3727630709518217"><ele>7.5</ele><time>2026-03-23T18:45:26Z</time></trkpt><trkpt lat="51.036055709828474" lon="2.372720141836531"><ele>8.666666666666666</ele><time>2026-03-23T18:45:29Z</time></trkpt><trkpt lat="51.03598991995675" lon="2.372693888173125"><ele>9.833333333333332</ele><time>2026-03-23T18:45:31Z</time></trkpt><trkpt lat="51.03593068443915" lon="2.372656334265112"><ele>11.0</ele><time>2026-03-23T18:45:33Z</time></trkpt><trkpt lat="51.03587296309812" lon="2.372607585280735"><ele>11.0</ele><time>2026-03-23T18:45:36Z</time></trkpt><trkpt lat="51.03581035498916" lon="2.3725440384024123"><ele>11.0</ele><time>2026-03-23T18:45:38Z</time></trkpt><trkpt lat="51.03572593382914" lon="2.37250537568617"><ele>11.0</ele><time>2026-03-23T18:45:41Z</time></trkpt><trkpt lat="51.035669815336036" lon="2.3724563325969257"><ele>11.0</ele><time>2026-03-23T18:45:44Z</time></trkpt><trkpt lat="51.03561239452382" lon="2.3724079632315562"><ele>11.0</ele><time>2026-03-23T18:46:11.999Z</time></trkpt><trkpt lat="51.035530274217486" lon="2.372398906192784"><ele>11.0</ele><time>2026-03-23T18:46:15.999Z</time></trkpt><trkpt lat="51.03544863454669" lon="2.3723826916670667"><ele>10.0</ele><time>2026-03-23T18:46:18.999Z</time></trkpt><trkpt lat="51.035374501005855" lon="2.3723732183158566"><ele>9.0</ele><time>2026-03-23T18:46:21.999Z</time></trkpt><trkpt lat="51.035308538795405" lon="2.3723521330231385"><ele>8.0</ele><time>2026-03-23T18:46:24.999Z</time></trkpt><trkpt lat="51.03524075899028" lon="2.372319608849435"><ele>7.0</ele><time>2026-03-23T18:46:28.999Z</time></trkpt><trkpt lat="51.03517144727426" lon="2.3723038582039107"><ele>6.0</ele><time>2026-03-23T18:46:31.999Z</time></trkpt><trkpt lat="51.03509253358758" lon="2.3722792235519248"><ele>5.0</ele><time>2026-03-23T18:46:34.999Z</time></trkpt><trkpt lat="51.03500336954221" lon="2.372265690238063"><ele>5.142857142857142</ele><time>2026-03-23T18:46:37.999Z</time></trkpt><trkpt lat="51.034923922513876" lon="2.3722358849414302"><ele>5.285714285714286</ele><time>2026-03-23T18:46:40.999Z</time></trkpt><trkpt lat="51.03485692166581" lon="2.372192619851191"><ele>5.428571428571429</ele><time>2026-03-23T18:46:43.999Z</time></trkpt><trkpt lat="51.034795135988794" lon="2.3721702787712053"><ele>5.571428571428571</ele><time>2026-03-23T18:46:46.999Z</time></trkpt><trkpt lat="51.034729570462254" lon="2.3721609312166394"><ele>5.714285714285714</ele><time>2026-03-23T18:46:49.999Z</time></trkpt><trkpt lat="51.034657919658876" lon="2.372143501951936"><ele>5.857142857142857</ele><time>2026-03-23T18:46:52.999Z</time></trkpt><trkpt lat="51.03457756868513" lon="2.372099415894347"><ele>6.0</ele><time>2026-03-23T18:46:55.999Z</time></trkpt><trkpt lat="51.03451078269564" lon="2.3720920949895885"><ele>6.166666666666667</ele><time>2026-03-23T18:46:57.999Z</time></trkpt><trkpt lat="51.03444911883532" lon="2.372061158320511"><ele>6.333333333333334</ele><time>2026-03-23T18:46:59.999Z</time></trkpt><trkpt lat="51.03435038407024" lon="2.3720315773019727"><ele>6.5</ele><time>2026-03-23T18:47:02.999Z</time></trkpt><trkpt lat="51.03427330770536" lon="2.372009984122359"><ele>6.666666666666667</ele><time>2026-03-23T18:47:04.999Z</time></trkpt><trkpt lat="51.034204791362285" lon="2.37198945978364"><ele>6.833333333333334</ele><time>2026-03-23T18:47:06.999Z</time></trkpt><trkpt lat="51.03413995072926" lon="2.371973903115409"><ele>7.0</ele><time>2026-03-23T18:47:08.999Z</time></trkpt><trkpt lat="51.03404971153906" lon="2.3719115298898803"><ele>7.0</ele><time>2026-03-23T18:47:11.999Z</time></trkpt><trkpt lat="51.03398510187206" lon="2.3718975674204223"><ele>7.0</ele><time>2026-03-23T18:47:13.999Z</time></trkpt><trkpt lat="51.03391436522027" lon="2.3718835829868454"><ele>7.0</ele><time>2026-03-23T18:47:15.999Z</time></trkpt><trkpt lat="51.033840656276716" lon="2.3718675795252278"><ele>7.0</ele><time>2026-03-23T18:47:17.999Z</time></trkpt><trkpt lat="51.03376851133357" lon="2.371842864739627"><ele>7.0</ele><time>2026-03-23T18:47:19.998Z</time></trkpt><trkpt lat="51.033700455428914" lon="2.371824253372896"><ele>7.0</ele><time>2026-03-23T18:47:21.998Z</time></trkpt><trkpt lat="51.03363083594812" lon="2.3717822810928864"><ele>7.0</ele><time>2026-03-23T18:47:24Z</time></trkpt><trkpt lat="51.033563224318385" lon="2.3717432834741783"><ele>7.000000000000001</ele><time>2026-03-23T18:47:26Z</time></trkpt><trkpt lat="51.033481590010915" lon="2.371711993205425"><ele>7.0</ele><time>2026-03-23T18:47:28Z</time></trkpt><trkpt lat="51.03341833241518" lon="2.371699489305928"><ele>7.0</ele><time>2026-03-23T18:47:30Z</time></trkpt><trkpt lat="51.03332769800934" lon="2.37169004821968"><ele>7.0</ele><time>2026-03-23T18:47:33Z</time></trkpt><trkpt lat="51.033254380592425" lon="2.3716726670133985"><ele>7.000000000000001</ele><time>2026-03-23T18:47:36Z</time></trkpt><trkpt lat="51.033176794062335" lon="2.3716536966000237"><ele>7.0</ele><time>2026-03-23T18:47:40Z</time></trkpt><trkpt lat="51.033091344696494" lon="2.3716341055095866"><ele>6.833333333333334</ele><time>2026-03-23T18:47:44Z</time></trkpt><trkpt lat="51.03301213432589" lon="2.3715957649933492"><ele>6.666666666666667</ele><time>2026-03-23T18:47:47Z</time></trkpt><trkpt lat="51.03294988703195" lon="2.371580349862158"><ele>6.5</ele><time>2026-03-23T18:47:49Z</time></trkpt><trkpt lat="51.032864982261074" lon="2.3715503239913196"><ele>6.333333333333334</ele><time>2026-03-23T18:47:52Z</time></trkpt><trkpt lat="51.03277038002904" lon="2.3715341027800454"><ele>6.166666666666667</ele><time>2026-03-23T18:47:55Z</time></trkpt><trkpt lat="51.032678800086785" lon="2.3715392768017614"><ele>6.0</ele><time>2026-03-23T18:47:58Z</time></trkpt><trkpt lat="51.03261629331869" lon="2.371566002701105"><ele>5.999999999999999</ele><time>2026-03-23T18:48:00Z</time></trkpt><trkpt lat="51.03253619541538" lon="2.3715730271630573"><ele>6.0</ele><time>2026-03-23T18:48:03Z</time></trkpt><trkpt lat="51.03246391900431" lon="2.371575872148702"><ele>6.0</ele><time>2026-03-23T18:48:06Z</time></trkpt><trkpt lat="51.0323876545708" lon="2.371569930652091"><ele>6.0</ele><time>2026-03-23T18:48:09Z</time></trkpt><trkpt lat="51.03232483161584" lon="2.371586047236756"><ele>6.0</ele><time>2026-03-23T18:48:11Z</time></trkpt><trkpt lat="51.032262255281815" lon="2.3716013730093892"><ele>5.999999999999999</ele><time>2026-03-23T18:48:13Z</time></trkpt><trkpt lat="51.032172360884964" lon="2.3716115812226044"><ele>6.0</ele><time>2026-03-23T18:48:16Z</time></trkpt><trkpt lat="51.0320896533142" lon="2.371563904892254"><ele>5.999999999999999</ele><time>2026-03-23T18:48:18.999Z</time></trkpt><trkpt lat="51.03202767372476" lon="2.371588359888793"><ele>6.0</ele><time>2026-03-23T18:48:31.999Z</time></trkpt><trkpt lat="51.031960437872016" lon="2.37159380388033"><ele>6.0</ele><time>2026-03-23T18:48:34.999Z</time></trkpt><trkpt lat="51.03186747713013" lon="2.371613448125445"><ele>6.0</ele><time>2026-03-23T18:48:37.999Z</time></trkpt><trkpt lat="51.03182111060924" lon="2.3717120949658517"><ele>6.0</ele><time>2026-03-23T18:48:39.999Z</time></trkpt><trkpt lat="51.031757629062206" lon="2.371756379415455"><ele>5.999999999999999</ele><time>2026-03-23T18:48:41.999Z</time></trkpt><trkpt lat="51.03168583965252" lon="2.371788236092746"><ele>6.0</ele><time>2026-03-23T18:48:43.999Z</time></trkpt><trkpt lat="51.031610399805025" lon="2.37183034791454"><ele>6.0</ele><time>2026-03-23T18:48:45.999Z</time></trkpt><trkpt lat="51.03154315803181" lon="2.371833048657426"><ele>6.0</ele><time>2026-03-23T18:48:48.999Z</time></trkpt><trkpt lat="51.031429121519345" lon="2.3718884930272925"><ele>6.0</ele><time>2026-03-23T18:48:51.999Z</time></trkpt><trkpt lat="51.03131099831152" lon="2.371893589786122"><ele>6.0</ele><time>2026-03-23T18:48:53.999Z</time></trkpt><trkpt lat="51.03121758958873" lon="2.3718906749510293"><ele>6.0</ele><time>2026-03-23T18:48:55.999Z</time></trkpt><trkpt lat="51.031156891556826" lon="2.3718097954449835"><ele>6.0</ele><time>2026-03-23T18:48:58.999Z</time></trkpt><trkpt lat="51.031119733411096" lon="2.371723881760393"><ele>6.0</ele><time>2026-03-23T18:49:00.999Z</time></trkpt><trkpt lat="51.031091445538664" lon="2.371631150429067"><ele>6.0</ele><time>2026-03-23T18:49:02.999Z</time></trkpt><trkpt lat="51.03105217351386" lon="2.37150838960422"><ele>6.0</ele><time>2026-03-23T18:49:05.999Z</time></trkpt><trkpt lat="51.03102057273437" lon="2.371394856544959"><ele>6.0</ele><time>2026-03-23T18:49:09.999Z</time></trkpt><trkpt lat="51.03092417493341" lon="2.371367750090137"><ele>6.0</ele><time>2026-03-23T18:49:13.999Z</time></trkpt><trkpt lat="51.030846046573465" lon="2.3713516359257083"><ele>6.0</ele><time>2026-03-23T18:49:15.999Z</time></trkpt><trkpt lat="51.03077864300283" lon="2.371300074917492"><ele>6.0</ele><time>2026-03-23T18:49:18.999Z</time></trkpt><trkpt lat="51.03076907511875" lon="2.3711963222302592"><ele>6.0</ele><time>2026-03-23T18:49:20.999Z</time></trkpt><trkpt lat="51.03069842567351" lon="2.3711606693466214"><ele>6.0</ele><time>2026-03-23T18:49:25.999Z</time></trkpt><trkpt lat="51.03060782006772" lon="2.3711893596348226"><ele>6.0</ele><time>2026-03-23T18:49:28.999Z</time></trkpt><trkpt lat="51.03054345035807" lon="2.3711918338754265"><ele>6.0</ele><time>2026-03-23T18:49:32Z</time></trkpt><trkpt lat="51.03045606750066" lon="2.3711983157413794"><ele>6.0</ele><time>2026-03-23T18:49:35Z</time></trkpt><trkpt lat="51.030380839421916" lon="2.371211577209039"><ele>6.0</ele><time>2026-03-23T18:49:37Z</time></trkpt><trkpt lat="51.030328886823696" lon="2.371270567020927"><ele>6.0</ele><time>2026-03-23T18:49:40Z</time></trkpt><trkpt lat="51.03039604937184" lon="2.371282204206965"><ele>6.0</ele><time>2026-03-23T18:49:43Z</time></trkpt><trkpt lat="51.03056434523185" lon="2.3712704634858457"><ele>6.0</ele><time>2026-03-23T18:49:48Z</time></trkpt><trkpt lat="51.03065550182895" lon="2.37123539023033"><ele>6.0</ele><time>2026-03-23T18:49:51Z</time></trkpt><trkpt lat="51.03068803229177" lon="2.3711211047893"><ele>6.0</ele><time>2026-03-23T18:50:00Z</time></trkpt><trkpt lat="51.030622935595694" lon="2.371131942790238"><ele>6.0</ele><time>2026-03-23T18:50:02Z</time></trkpt><trkpt lat="51.03053373723873" lon="2.3711380286096597"><ele>6.0</ele><time>2026-03-23T18:50:05Z</time></trkpt><trkpt lat="51.03046845808518" lon="2.3711506579970045"><ele>6.0</ele><time>2026-03-23T18:50:07Z</time></trkpt><trkpt lat="51.03036988947285" lon="2.371166527626494"><ele>6.0</ele><time>2026-03-23T18:50:10Z</time></trkpt><trkpt lat="51.03030620445334" lon="2.3711675594728954"><ele>6.0</ele><time>2026-03-23T18:50:12Z</time></trkpt><trkpt lat="51.030234497237664" lon="2.37114030355168"><ele>6.0</ele><time>2026-03-23T18:50:15Z</time></trkpt><trkpt lat="51.030109162737205" lon="2.37108336449463"><ele>6.0</ele><time>2026-03-23T18:50:18Z</time></trkpt><trkpt lat="51.03002481078772" lon="2.3710161080205516"><ele>6.0</ele><time>2026-03-23T18:50:21Z</time></trkpt><trkpt lat="51.02988478539698" lon="2.371040945167143"><ele>6.0</ele><time>2026-03-23T18:50:23.999Z</time></trkpt><trkpt lat="51.02981395187862" lon="2.3709350439442125"><ele>5.666666666666667</ele><time>2026-03-23T18:50:25.999Z</time></trkpt><trkpt lat="51.029762730719725" lon="2.3708107671888334"><ele>5.333333333333333</ele><time>2026-03-23T18:50:27.999Z</time></trkpt><trkpt lat="51.02972146298217" lon="2.370687074643538"><ele>5.0</ele><time>2026-03-23T18:50:29.999Z</time></trkpt><trkpt lat="51.02969201514705" lon="2.3705642525040145"><ele>4.666666666666666</ele><time>2026-03-23T18:50:31.999Z</time></trkpt><trkpt lat="51.02965736335209" lon="2.370462790216061"><ele>4.333333333333333</ele><time>2026-03-23T18:50:33.999Z</time></trkpt><trkpt lat="51.029635402126615" lon="2.3703466958165413"><ele>4.0</ele><time>2026-03-23T18:50:35.999Z</time></trkpt><trkpt lat="51.02960044945406" lon="2.3702127036747287"><ele>3.8571428571428568</ele><time>2026-03-23T18:50:38.999Z</time></trkpt><trkpt lat="51.029571929765375" lon="2.370111829152536"><ele>3.714285714285714</ele><time>2026-03-23T18:50:40.999Z</time></trkpt><trkpt lat="51.02954558704283" lon="2.369995029807464"><ele>3.571428571428571</ele><time>2026-03-23T18:50:42.999Z</time></trkpt><trkpt lat="51.02953215590322" lon="2.3698876531901156"><ele>3.4285714285714284</ele><time>2026-03-23T18:50:44.999Z</time></trkpt><trkpt lat="51.029505802774935" lon="2.369790805570134"><ele>3.2857142857142856</ele><time>2026-03-23T18:50:46.999Z</time></trkpt><trkpt lat="51.02947509041031" lon="2.369700717145959"><ele>3.1428571428571423</ele><time>2026-03-23T18:50:48.999Z</time></trkpt><trkpt lat="51.02944534269432" lon="2.3695884355324788"><ele>3.0</ele><time>2026-03-23T18:50:51.999Z</time></trkpt><trkpt lat="51.02942405173832" lon="2.3694789852034184"><ele>3.0</ele><time>2026-03-23T18:50:53.999Z</time></trkpt><trkpt lat="51.02938895009001" lon="2.3693655655113863"><ele>3.0</ele><time>2026-03-23T18:50:55.999Z</time></trkpt><trkpt lat="51.0293548928782" lon="2.36924389288348"><ele>3.0</ele><time>2026-03-23T18:50:57.999Z</time></trkpt><trkpt lat="51.02932450900491" lon="2.3690937794611475"><ele>3.0</ele><time>2026-03-23T18:50:59.999Z</time></trkpt><trkpt lat="51.02929710536241" lon="2.3689721950934715"><ele>3.0</ele><time>2026-03-23T18:51:01.999Z</time></trkpt><trkpt lat="51.029264783504104" lon="2.3688346279020775"><ele>3.0</ele><time>2026-03-23T18:51:03.999Z</time></trkpt><trkpt lat="51.029240745146986" lon="2.368737459814865"><ele>3.0</ele><time>2026-03-23T18:51:04.999Z</time></trkpt><trkpt lat="51.029214288209864" lon="2.368592924451267"><ele>3.0</ele><time>2026-03-23T18:51:06.999Z</time></trkpt><trkpt lat="51.02919529883833" lon="2.3684426461755277"><ele>3.0</ele><time>2026-03-23T18:51:08.999Z</time></trkpt><trkpt lat="51.029174162108646" lon="2.368286999802272"><ele>3.0</ele><time>2026-03-23T18:51:10.999Z</time></trkpt><trkpt lat="51.02915750437406" lon="2.3681760868485915"><ele>3.0</ele><time>2026-03-23T18:51:13.999Z</time></trkpt><trkpt lat="51.02914892084939" lon="2.3680611444182897"><ele>3.0</ele><time>2026-03-23T18:51:14.999Z</time></trkpt><trkpt lat="51.029128952250765" lon="2.3679488653738052"><ele>3.0</ele><time>2026-03-23T18:51:16.999Z</time></trkpt><trkpt lat="51.02910555804621" lon="2.367818753418652"><ele>3.0</ele><time>2026-03-23T18:51:19.999Z</time></trkpt><trkpt lat="51.0290910901886" lon="2.367690464689745"><ele>3.0</ele><time>2026-03-23T18:51:22.999Z</time></trkpt><trkpt lat="51.029073879615126" lon="2.3675520513069626"><ele>3.0</ele><time>2026-03-23T18:51:25.999Z</time></trkpt><trkpt lat="51.029057330886026" lon="2.367445981631969"><ele>3.0</ele><time>2026-03-23T18:51:27.999Z</time></trkpt><trkpt lat="51.02905571222863" lon="2.3673128253226063"><ele>3.0</ele><time>2026-03-23T18:51:31.999Z</time></trkpt><trkpt lat="51.02904624266466" lon="2.3671676965454345"><ele>2.9999999999999996</ele><time>2026-03-23T18:51:33.998Z</time></trkpt><trkpt lat="51.02904280579898" lon="2.3670472338659074"><ele>3.0</ele><time>2026-03-23T18:51:36Z</time></trkpt><trkpt lat="51.029073492417716" lon="2.3669428110500146"><ele>3.0</ele><time>2026-03-23T18:51:39Z</time></trkpt><trkpt lat="51.02905772781854" lon="2.366833519163426"><ele>3.0</ele><time>2026-03-23T18:51:42Z</time></trkpt><trkpt lat="51.02905925056115" lon="2.366728874275688"><ele>3.0</ele><time>2026-03-23T18:51:44Z</time></trkpt><trkpt lat="51.02905845391894" lon="2.366627525694248"><ele>2.9999999999999996</ele><time>2026-03-23T18:51:47Z</time></trkpt><trkpt lat="51.02902035538399" lon="2.366494389251537"><ele>3.0</ele><time>2026-03-23T18:51:50Z</time></trkpt><trkpt lat="51.02897825828264" lon="2.366396731556348"><ele>2.714285714285714</ele><time>2026-03-23T18:51:52Z</time></trkpt><trkpt lat="51.02895143212035" lon="2.366300004646605"><ele>2.4285714285714284</ele><time>2026-03-23T18:51:54Z</time></trkpt><trkpt lat="51.02893344275533" lon="2.3661859530966898"><ele>2.142857142857143</ele><time>2026-03-23T18:51:57Z</time></trkpt><trkpt lat="51.02888834246757" lon="2.366089516899544"><ele>1.857142857142857</ele><time>2026-03-23T18:51:59Z</time></trkpt><trkpt lat="51.02887552972936" lon="2.3659757602087628"><ele>1.5714285714285712</ele><time>2026-03-23T18:52:01Z</time></trkpt><trkpt lat="51.02886605363489" lon="2.3658682240576363"><ele>1.2857142857142856</ele><time>2026-03-23T18:52:03Z</time></trkpt><trkpt lat="51.02883627816497" lon="2.3657708313653534"><ele>1.0</ele><time>2026-03-23T18:52:05Z</time></trkpt><trkpt lat="51.02882181470974" lon="2.36566736162041"><ele>0.9999999999999999</ele><time>2026-03-23T18:52:07Z</time></trkpt><trkpt lat="51.02883915474119" lon="2.365547700953142"><ele>1.0</ele><time>2026-03-23T18:52:10Z</time></trkpt><trkpt lat="51.02884021157368" lon="2.3654119819915587"><ele>1.0</ele><time>2026-03-23T18:52:13Z</time></trkpt><trkpt lat="51.02882078230301" lon="2.3652613045174924"><ele>1.0</ele><time>2026-03-23T18:52:16Z</time></trkpt><trkpt lat="51.02877319884426" lon="2.3651438575348753"><ele>0.9999999999999999</ele><time>2026-03-23T18:52:18Z</time></trkpt><trkpt lat="51.028796917343286" lon="2.3650416021863863"><ele>1.0</ele><time>2026-03-23T18:52:20Z</time></trkpt><trkpt lat="51.0287689958092" lon="2.364916491178267"><ele>0.9999999999999999</ele><time>2026-03-23T18:52:22Z</time></trkpt><trkpt lat="51.02877830528954" lon="2.364792871575327"><ele>1.0</ele><time>2026-03-23T18:52:23Z</time></trkpt><trkpt lat="51.02879409944217" lon="2.3646775441831362"><ele>1.0</ele><time>2026-03-23T18:52:24Z</time></trkpt><trkpt lat="51.02877401071403" lon="2.364528116872281"><ele>1.0</ele><time>2026-03-23T18:52:25Z</time></trkpt><trkpt lat="51.02877432667328" lon="2.3644076102707956"><ele>0.9999999999999999</ele><time>2026-03-23T18:52:26Z</time></trkpt><trkpt lat="51.02879864200359" lon="2.3642790696955145"><ele>1.0</ele><time>2026-03-23T18:52:27Z</time></trkpt><trkpt lat="51.02880766724045" lon="2.3641717448717334"><ele>1.1666666666666665</ele><time>2026-03-23T18:52:28Z</time></trkpt><trkpt lat="51.02881185526191" lon="2.3640244003895"><ele>1.3333333333333333</ele><time>2026-03-23T18:52:29.999Z</time></trkpt><trkpt lat="51.02882075830889" lon="2.363858915906802"><ele>1.5</ele><time>2026-03-23T18:52:31.999Z</time></trkpt><trkpt lat="51.02881503215263" lon="2.363710740646485"><ele>1.6666666666666665</ele><time>2026-03-23T18:52:33.999Z</time></trkpt><trkpt lat="51.02880850436247" lon="2.363582494825806"><ele>1.8333333333333333</ele><time>2026-03-23T18:52:35.999Z</time></trkpt><trkpt lat="51.028808261968486" lon="2.3634624794540366"><ele>2.0</ele><time>2026-03-23T18:52:37.999Z</time></trkpt><trkpt lat="51.02881975219373" lon="2.3633457415775307"><ele>2.2857142857142856</ele><time>2026-03-23T18:52:39.999Z</time></trkpt><trkpt lat="51.02881113678843" lon="2.363237917987852"><ele>2.571428571428571</ele><time>2026-03-23T18:52:49.999Z</time></trkpt><trkpt lat="51.028820790670345" lon="2.363088895080889"><ele>2.8571428571428568</ele><time>2026-03-23T18:53:03.999Z</time></trkpt><trkpt lat="51.02882117115695" lon="2.362986091073956"><ele>3.142857142857143</ele><time>2026-03-23T18:53:05.999Z</time></trkpt><trkpt lat="51.028824555198824" lon="2.3628836934049615"><ele>3.428571428571428</ele><time>2026-03-23T18:53:07.999Z</time></trkpt><trkpt lat="51.028833404766296" lon="2.3627845788831654"><ele>3.714285714285714</ele><time>2026-03-23T18:53:09.999Z</time></trkpt><trkpt lat="51.02882411326014" lon="2.3626788578546822"><ele>4.0</ele><time>2026-03-23T18:53:11.999Z</time></trkpt><trkpt lat="51.02882042023358" lon="2.3625570716689945"><ele>3.9999999999999996</ele><time>2026-03-23T18:53:13.999Z</time></trkpt><trkpt lat="51.028820427785455" lon="2.3624223659228587"><ele>4.0</ele><time>2026-03-23T18:53:15.999Z</time></trkpt><trkpt lat="51.02882770502653" lon="2.3622901336681656"><ele>4.0</ele><time>2026-03-23T18:53:17.999Z</time></trkpt><trkpt lat="51.02883290894166" lon="2.3621442790296214"><ele>4.0</ele><time>2026-03-23T18:53:19.999Z</time></trkpt><trkpt lat="51.02883544149305" lon="2.3620223930002298"><ele>3.9999999999999996</ele><time>2026-03-23T18:53:21.999Z</time></trkpt><trkpt lat="51.028793184180095" lon="2.361913174555423"><ele>4.0</ele><time>2026-03-23T18:53:23.999Z</time></trkpt><trkpt lat="51.028742506872256" lon="2.361803761316872"><ele>3.9999999999999996</ele><time>2026-03-23T18:53:25.999Z</time></trkpt><trkpt lat="51.02875045239398" lon="2.361678428167383"><ele>4.0</ele><time>2026-03-23T18:53:27.999Z</time></trkpt><trkpt lat="51.02875145495952" lon="2.361544532859775"><ele>4.0</ele><time>2026-03-23T18:53:29.999Z</time></trkpt><trkpt lat="51.02875739637286" lon="2.3614121269662243"><ele>4.0</ele><time>2026-03-23T18:53:31.999Z</time></trkpt><trkpt lat="51.02874126083386" lon="2.361215860472977"><ele>3.9999999999999996</ele><time>2026-03-23T18:53:33.999Z</time></trkpt><trkpt lat="51.028758849277644" lon="2.3611019424615938"><ele>4.0</ele><time>2026-03-23T18:53:35.999Z</time></trkpt><trkpt lat="51.028757285960516" lon="2.360962688449745"><ele>3.9999999999999996</ele><time>2026-03-23T18:53:37.999Z</time></trkpt><trkpt lat="51.02876791393444" lon="2.360819495367089"><ele>4.0</ele><time>2026-03-23T18:53:39.998Z</time></trkpt><trkpt lat="51.02876582415173" lon="2.3606760519578462"><ele>4.0</ele><time>2026-03-23T18:53:42Z</time></trkpt><trkpt lat="51.02876356773269" lon="2.360528654652408"><ele>4.0</ele><time>2026-03-23T18:53:44Z</time></trkpt><trkpt lat="51.02876017600498" lon="2.360395966291038"><ele>3.9999999999999996</ele><time>2026-03-23T18:53:46Z</time></trkpt><trkpt lat="51.02875543048411" lon="2.3602516677923018"><ele>4.0</ele><time>2026-03-23T18:53:48Z</time></trkpt><trkpt lat="51.02874833809861" lon="2.360114976840621"><ele>3.9999999999999996</ele><time>2026-03-23T18:53:50Z</time></trkpt><trkpt lat="51.02874909268663" lon="2.359969015900904"><ele>4.0</ele><time>2026-03-23T18:53:52Z</time></trkpt><trkpt lat="51.028749473760364" lon="2.3598296411451734"><ele>4.0</ele><time>2026-03-23T18:53:54Z</time></trkpt><trkpt lat="51.02873857633312" lon="2.3597163482810073"><ele>4.0</ele><time>2026-03-23T18:53:56Z</time></trkpt><trkpt lat="51.028739960023536" lon="2.359600067955026"><ele>3.9999999999999996</ele><time>2026-03-23T18:53:58Z</time></trkpt><trkpt lat="51.028736619292644" lon="2.359491884769654"><ele>4.0</ele><time>2026-03-23T18:54:01Z</time></trkpt><trkpt lat="51.02872770649593" lon="2.3593835851922615"><ele>3.833333333333333</ele><time>2026-03-23T18:54:19Z</time></trkpt><trkpt lat="51.02872977646721" lon="2.3592758009848134"><ele>3.6666666666666665</ele><time>2026-03-23T18:54:21Z</time></trkpt><trkpt lat="51.0287557657208" lon="2.3591615012200173"><ele>3.5</ele><time>2026-03-23T18:54:24Z</time></trkpt><trkpt lat="51.028788644381585" lon="2.3590458675248667"><ele>3.333333333333333</ele><time>2026-03-23T18:54:27Z</time></trkpt><trkpt lat="51.028813281326464" lon="2.358897160744503"><ele>3.1666666666666665</ele><time>2026-03-23T18:54:30Z</time></trkpt><trkpt lat="51.02879338298388" lon="2.3587906010470845"><ele>3.0</ele><time>2026-03-23T18:54:31.999Z</time></trkpt><trkpt lat="51.028799291399274" lon="2.358684720951254"><ele>3.3333333333333335</ele><time>2026-03-23T18:54:33.999Z</time></trkpt><trkpt lat="51.02880901581843" lon="2.35857386697111"><ele>3.666666666666667</ele><time>2026-03-23T18:54:35.999Z</time></trkpt><trkpt lat="51.02882897863633" lon="2.35845279499426"><ele>4.0</ele><time>2026-03-23T18:54:37.999Z</time></trkpt><trkpt lat="51.02885228168871" lon="2.35833844519826"><ele>4.333333333333334</ele><time>2026-03-23T18:54:39.999Z</time></trkpt><trkpt lat="51.02886571431101" lon="2.3581841500376424"><ele>4.666666666666667</ele><time>2026-03-23T18:54:41.999Z</time></trkpt><trkpt lat="51.028891856244684" lon="2.3580813059968113"><ele>5.0</ele><time>2026-03-23T18:54:43.999Z</time></trkpt><trkpt lat="51.028912990496934" lon="2.357951397577066"><ele>5.0</ele><time>2026-03-23T18:54:45.999Z</time></trkpt><trkpt lat="51.02894460714573" lon="2.3578222019323825"><ele>5.0</ele><time>2026-03-23T18:54:47.999Z</time></trkpt><trkpt lat="51.028974993532245" lon="2.35767906421714"><ele>5.0</ele><time>2026-03-23T18:54:49.999Z</time></trkpt><trkpt lat="51.029014515576606" lon="2.35752919033143"><ele>5.0</ele><time>2026-03-23T18:54:51.999Z</time></trkpt><trkpt lat="51.029028316634445" lon="2.357349791105303"><ele>5.0</ele><time>2026-03-23T18:54:53.999Z</time></trkpt><trkpt lat="51.029013689285" lon="2.3571873982837013"><ele>5.0</ele><time>2026-03-23T18:54:55.999Z</time></trkpt><trkpt lat="51.0290051932925" lon="2.357000083979193"><ele>5.0</ele><time>2026-03-23T18:54:57.999Z</time></trkpt><trkpt lat="51.028993826682076" lon="2.3569006853121848"><ele>5.0</ele><time>2026-03-23T18:54:58.999Z</time></trkpt><trkpt lat="51.028973242487005" lon="2.356790488919721"><ele>5.0</ele><time>2026-03-23T18:54:59.999Z</time></trkpt><trkpt lat="51.02895882306618" lon="2.356677936278522"><ele>5.0</ele><time>2026-03-23T18:55:00.999Z</time></trkpt><trkpt lat="51.02895633966077" lon="2.3565711355193284"><ele>5.0</ele><time>2026-03-23T18:55:01.999Z</time></trkpt><trkpt lat="51.02894516534026" lon="2.356466663298049"><ele>5.4</ele><time>2026-03-23T18:55:02.999Z</time></trkpt><trkpt lat="51.02893583383241" lon="2.3563628047688314"><ele>5.8</ele><time>2026-03-23T18:55:03.999Z</time></trkpt><trkpt lat="51.02892360431867" lon="2.356177077699486"><ele>6.199999999999999</ele><time>2026-03-23T18:55:05.999Z</time></trkpt><trkpt lat="51.028924006182876" lon="2.3560118971352577"><ele>6.6</ele><time>2026-03-23T18:55:07.999Z</time></trkpt><trkpt lat="51.028905421132045" lon="2.3558588556236755"><ele>7.0</ele><time>2026-03-23T18:55:09.999Z</time></trkpt><trkpt lat="51.02887838051848" lon="2.3557164167362004"><ele>7.0</ele><time>2026-03-23T18:55:11.999Z</time></trkpt><trkpt lat="51.02886578209448" lon="2.3555844493020612"><ele>6.999999999999999</ele><time>2026-03-23T18:55:13.999Z</time></trkpt><trkpt lat="51.02884904891277" lon="2.3554621792103974"><ele>6.999999999999999</ele><time>2026-03-23T18:55:15.999Z</time></trkpt><trkpt lat="51.028822770535186" lon="2.3553028334963773"><ele>7.0</ele><time>2026-03-23T18:55:17.999Z</time></trkpt><trkpt lat="51.02882796917665" lon="2.3551574739706487"><ele>7.0</ele><time>2026-03-23T18:55:19.999Z</time></trkpt><trkpt lat="51.02881594698604" lon="2.3549902593851764"><ele>7.0</ele><time>2026-03-23T18:55:21.999Z</time></trkpt><trkpt lat="51.02880133802233" lon="2.3548322480198816"><ele>6.999999999999999</ele><time>2026-03-23T18:55:23.999Z</time></trkpt><trkpt lat="51.028818521119206" lon="2.354658841183366"><ele>6.999999999999999</ele><time>2026-03-23T18:55:27.999Z</time></trkpt><trkpt lat="51.028795635549336" lon="2.3545017350747255"><ele>7.0</ele><time>2026-03-23T18:55:30.999Z</time></trkpt><trkpt lat="51.02880166070736" lon="2.3543297811032176"><ele>7.0</ele><time>2026-03-23T18:55:32.999Z</time></trkpt><trkpt lat="51.02877943004018" lon="2.354182745393743"><ele>6.833333333333334</ele><time>2026-03-23T18:55:34.999Z</time></trkpt><trkpt lat="51.028755880478414" lon="2.354023127765261"><ele>6.666666666666667</ele><time>2026-03-23T18:55:36.999Z</time></trkpt><trkpt lat="51.02876234356915" lon="2.3539147942476015"><ele>6.5</ele><time>2026-03-23T18:55:38.999Z</time></trkpt><trkpt lat="51.02875237932115" lon="2.353793146473851"><ele>6.333333333333334</ele><time>2026-03-23T18:55:41.999Z</time></trkpt><trkpt lat="51.028727359446336" lon="2.353655537882666"><ele>6.166666666666667</ele><time>2026-03-23T18:55:43.998Z</time></trkpt><trkpt lat="51.02872047701559" lon="2.353519595697045"><ele>6.0</ele><time>2026-03-23T18:55:46.998Z</time></trkpt><trkpt lat="51.028725301937335" lon="2.353404737046166"><ele>5.8</ele><time>2026-03-23T18:55:49Z</time></trkpt><trkpt lat="51.02873199666997" lon="2.353268352952555"><ele>5.6</ele><time>2026-03-23T18:55:52Z</time></trkpt><trkpt lat="51.02872627330368" lon="2.3531610821835156"><ele>5.4</ele><time>2026-03-23T18:55:54Z</time></trkpt><trkpt lat="51.02871448495551" lon="2.353039540213341"><ele>5.2</ele><time>2026-03-23T18:55:55Z</time></trkpt><trkpt lat="51.02870377846542" lon="2.3529153902915985"><ele>5.0</ele><time>2026-03-23T18:55:57Z</time></trkpt><trkpt lat="51.02867664977423" lon="2.3524788714589246"><ele>5.0</ele><time>2026-03-23T18:56:00Z</time></trkpt><trkpt lat="51.02866376329496" lon="2.3523632818609364"><ele>5.0</ele><time>2026-03-23T18:56:02Z</time></trkpt><trkpt lat="51.02865028473906" lon="2.352216792021076"><ele>5.0</ele><time>2026-03-23T18:56:04Z</time></trkpt><trkpt lat="51.02864670909087" lon="2.3520950618299077"><ele>5.0</ele><time>2026-03-23T18:56:06Z</time></trkpt><trkpt lat="51.028646975711546" lon="2.351975497142032"><ele>5.0</ele><time>2026-03-23T18:56:08Z</time></trkpt><trkpt lat="51.02867099541167" lon="2.351872436140585"><ele>5.0</ele><time>2026-03-23T18:56:10Z</time></trkpt><trkpt lat="51.028691397400266" lon="2.3517651324731057"><ele>5.0</ele><time>2026-03-23T18:56:12Z</time></trkpt><trkpt lat="51.02870408882174" lon="2.3516555928148732"><ele>5.0</ele><time>2026-03-23T18:56:14Z</time></trkpt><trkpt lat="51.028708403634376" lon="2.3515475608415235"><ele>5.0</ele><time>2026-03-23T18:56:16Z</time></trkpt><trkpt lat="51.028720336611705" lon="2.3514185204229743"><ele>5.0</ele><time>2026-03-23T18:56:18Z</time></trkpt><trkpt lat="51.02870934574195" lon="2.3513049554487115"><ele>5.0</ele><time>2026-03-23T18:56:20Z</time></trkpt><trkpt lat="51.02873106051899" lon="2.351162891191338"><ele>5.0</ele><time>2026-03-23T18:56:23Z</time></trkpt><trkpt lat="51.02873721537222" lon="2.3510431273517387"><ele>5.142857142857142</ele><time>2026-03-23T18:56:26Z</time></trkpt><trkpt lat="51.02873721095146" lon="2.350923627158937"><ele>5.285714285714286</ele><time>2026-03-23T18:56:29Z</time></trkpt><trkpt lat="51.028738854345114" lon="2.3508211334025635"><ele>5.428571428571429</ele><time>2026-03-23T18:56:32Z</time></trkpt><trkpt lat="51.028784727866544" lon="2.3507257855106074"><ele>5.571428571428571</ele><time>2026-03-23T18:56:36Z</time></trkpt><trkpt lat="51.02884337646982" lon="2.350687928996903"><ele>5.714285714285714</ele><time>2026-03-23T18:56:38.999Z</time></trkpt><trkpt lat="51.028783309617204" lon="2.350640600359602"><ele>5.857142857142857</ele><time>2026-03-23T18:56:56.999Z</time></trkpt><trkpt lat="51.02874704987403" lon="2.3507336455212937"><ele>6.0</ele><time>2026-03-23T18:57:02.999Z</time></trkpt><trkpt lat="51.02874460260663" lon="2.350838044988348"><ele>6.0</ele><time>2026-03-23T18:57:12.999Z</time></trkpt><trkpt lat="51.02880444043267" lon="2.3507740054167265"><ele>6.0</ele><time>2026-03-23T18:59:04.999Z</time></trkpt><trkpt lat="51.02885907101276" lon="2.3506862201508563"><ele>6.0</ele><time>2026-03-23T18:59:07.999Z</time></trkpt><trkpt lat="51.02891818605593" lon="2.3506147955945984"><ele>6.0</ele><time>2026-03-23T18:59:13.999Z</time></trkpt><trkpt lat="51.028919658297305" lon="2.3505110033314716"><ele>6.0</ele><time>2026-03-23T19:00:06Z</time></trkpt><trkpt lat="51.028871012038906" lon="2.3503696211578005"><ele>6.0</ele><time>2026-03-23T19:00:23Z</time></trkpt><trkpt lat="51.02881788471411" lon="2.3504459303968215"><ele>6.0</ele><time>2026-03-23T19:00:27Z</time></trkpt><trkpt lat="51.028801649496444" lon="2.3505619008534557"><ele>6.0</ele><time>2026-03-23T19:00:31Z</time></trkpt><trkpt lat="51.02874116212822" lon="2.3506108590552284"><ele>6.0</ele><time>2026-03-23T19:00:41Z</time></trkpt><trkpt lat="51.02867841439414" lon="2.350679921455481"><ele>6.0</ele><time>2026-03-23T19:00:45Z</time></trkpt><trkpt lat="51.02869379721715" lon="2.3508298113815504"><ele>6.0</ele><time>2026-03-23T19:00:47Z</time></trkpt><trkpt lat="51.0286928915374" lon="2.350953905033986"><ele>6.0</ele><time>2026-03-23T19:00:49Z</time></trkpt><trkpt lat="51.02867649964519" lon="2.351064342516437"><ele>6.0</ele><time>2026-03-23T19:00:50.999Z</time></trkpt><trkpt lat="51.0286735000454" lon="2.3511914297565353"><ele>6.0</ele><time>2026-03-23T19:00:52.999Z</time></trkpt><trkpt lat="51.028646575690416" lon="2.3513011143824287"><ele>6.0</ele><time>2026-03-23T19:00:54.999Z</time></trkpt><trkpt lat="51.028651669682986" lon="2.3514147141798176"><ele>6.0</ele><time>2026-03-23T19:00:56.999Z</time></trkpt><trkpt lat="51.028610178103406" lon="2.3515483702429347"><ele>6.0</ele><time>2026-03-23T19:00:58.999Z</time></trkpt><trkpt lat="51.02859748300414" lon="2.3516473728360836"><ele>6.0</ele><time>2026-03-23T19:01:00.999Z</time></trkpt><trkpt lat="51.02858630905886" lon="2.351765500595451"><ele>5.8</ele><time>2026-03-23T19:01:04.999Z</time></trkpt><trkpt lat="51.02855381743378" lon="2.351868629963227"><ele>5.6</ele><time>2026-03-23T19:01:06.999Z</time></trkpt><trkpt lat="51.02856104743564" lon="2.3519890459427466"><ele>5.4</ele><time>2026-03-23T19:01:08.999Z</time></trkpt><trkpt lat="51.0285916402602" lon="2.3521515147651284"><ele>5.2</ele><time>2026-03-23T19:01:10.999Z</time></trkpt><trkpt lat="51.028606670295304" lon="2.3523049960937152"><ele>5.0</ele><time>2026-03-23T19:01:12.999Z</time></trkpt><trkpt lat="51.0286404034042" lon="2.3524585019705397"><ele>5.0</ele><time>2026-03-23T19:01:14.999Z</time></trkpt><trkpt lat="51.028649519885356" lon="2.352628449153492"><ele>5.0</ele><time>2026-03-23T19:01:16.999Z</time></trkpt><trkpt lat="51.028665405956545" lon="2.3527330687803913"><ele>5.0</ele><time>2026-03-23T19:01:18.999Z</time></trkpt><trkpt lat="51.02866698428095" lon="2.352840154741005"><ele>5.0</ele><time>2026-03-23T19:01:20.999Z</time></trkpt><trkpt lat="51.02867127054304" lon="2.3531230430510393"><ele>5.0</ele><time>2026-03-23T19:01:22.999Z</time></trkpt><trkpt lat="51.02867739481918" lon="2.3532739017199416"><ele>5.0</ele><time>2026-03-23T19:01:24.999Z</time></trkpt><trkpt lat="51.028686759179216" lon="2.353409466037835"><ele>5.0</ele><time>2026-03-23T19:01:26.999Z</time></trkpt><trkpt lat="51.02869439128485" lon="2.3535397261319897"><ele>5.0</ele><time>2026-03-23T19:01:28.999Z</time></trkpt><trkpt lat="51.028713799613534" lon="2.3536799211686263"><ele>5.0</ele><time>2026-03-23T19:01:30.999Z</time></trkpt><trkpt lat="51.02872042946558" lon="2.353801082729033"><ele>5.0</ele><time>2026-03-23T19:01:32.999Z</time></trkpt><trkpt lat="51.028739134930255" lon="2.3539254662729996"><ele>5.0</ele><time>2026-03-23T19:01:34.999Z</time></trkpt><trkpt lat="51.028740727294824" lon="2.354079978843457"><ele>5.142857142857142</ele><time>2026-03-23T19:01:37.999Z</time></trkpt><trkpt lat="51.02875008418833" lon="2.3542066686564804"><ele>5.285714285714286</ele><time>2026-03-23T19:01:39.999Z</time></trkpt><trkpt lat="51.028770449966515" lon="2.3543057934171983"><ele>5.428571428571429</ele><time>2026-03-23T19:01:41.999Z</time></trkpt><trkpt lat="51.02878520757158" lon="2.354425452010829"><ele>5.571428571428571</ele><time>2026-03-23T19:01:43.999Z</time></trkpt><trkpt lat="51.02878266354278" lon="2.3545302115986146"><ele>5.714285714285714</ele><time>2026-03-23T19:01:45.999Z</time></trkpt><trkpt lat="51.02874093771455" lon="2.3546359795371834"><ele>5.857142857142857</ele><time>2026-03-23T19:01:47.999Z</time></trkpt><trkpt lat="51.028718308826974" lon="2.354758868851015"><ele>6.0</ele><time>2026-03-23T19:01:49.999Z</time></trkpt><trkpt lat="51.02869955288438" lon="2.3548871477023403"><ele>6.166666666666667</ele><time>2026-03-23T19:01:51.999Z</time></trkpt><trkpt lat="51.028713131540876" lon="2.355013718060998"><ele>6.333333333333334</ele><time>2026-03-23T19:01:53.999Z</time></trkpt><trkpt lat="51.02876142381772" lon="2.3551025920516797"><ele>6.5</ele><time>2026-03-23T19:01:56.999Z</time></trkpt><trkpt lat="51.028776838799565" lon="2.3552018382904607"><ele>6.666666666666667</ele><time>2026-03-23T19:01:58.999Z</time></trkpt><trkpt lat="51.02873775780822" lon="2.355329119090263"><ele>6.833333333333334</ele><time>2026-03-23T19:02:00.999Z</time></trkpt><trkpt lat="51.02875998567239" lon="2.355484784934879"><ele>7.0</ele><time>2026-03-23T19:02:03.998Z</time></trkpt><trkpt lat="51.0287634748939" lon="2.355624142216822"><ele>7.000000000000001</ele><time>2026-03-23T19:02:06Z</time></trkpt><trkpt lat="51.02879833718732" lon="2.355752364545535"><ele>7.0</ele><time>2026-03-23T19:02:08Z</time></trkpt><trkpt lat="51.02875876174686" lon="2.3558911800939186"><ele>7.0</ele><time>2026-03-23T19:02:10Z</time></trkpt><trkpt lat="51.02879499309988" lon="2.3560012226146694"><ele>7.0</ele><time>2026-03-23T19:02:12Z</time></trkpt><trkpt lat="51.028783515734766" lon="2.3561141104066765"><ele>7.000000000000001</ele><time>2026-03-23T19:02:14Z</time></trkpt><trkpt lat="51.028848065619485" lon="2.3562406191692884"><ele>7.0</ele><time>2026-03-23T19:02:16Z</time></trkpt><trkpt lat="51.02886589692705" lon="2.356341702087696"><ele>6.6</ele><time>2026-03-23T19:02:17Z</time></trkpt><trkpt lat="51.02888867294478" lon="2.3565114681534403"><ele>6.199999999999999</ele><time>2026-03-23T19:02:19Z</time></trkpt><trkpt lat="51.028904400970106" lon="2.356666414687162"><ele>5.8</ele><time>2026-03-23T19:02:21Z</time></trkpt><trkpt lat="51.02892063622023" lon="2.3567954393345816"><ele>5.4</ele><time>2026-03-23T19:02:23Z</time></trkpt><trkpt lat="51.028919495652836" lon="2.3569452840841785"><ele>5.0</ele><time>2026-03-23T19:02:25Z</time></trkpt><trkpt lat="51.02892142554459" lon="2.3570608249180967"><ele>5.0</ele><time>2026-03-23T19:02:27Z</time></trkpt><trkpt lat="51.02893832271122" lon="2.357202161158656"><ele>5.0</ele><time>2026-03-23T19:02:29Z</time></trkpt><trkpt lat="51.02894388456263" lon="2.3573379575797704"><ele>5.0</ele><time>2026-03-23T19:02:31Z</time></trkpt><trkpt lat="51.02894882190594" lon="2.357469521005611"><ele>5.0</ele><time>2026-03-23T19:02:33Z</time></trkpt><trkpt lat="51.02890759110359" lon="2.3576017142065373"><ele>5.0</ele><time>2026-03-23T19:02:35Z</time></trkpt><trkpt lat="51.02887605640714" lon="2.357713307302651"><ele>5.0</ele><time>2026-03-23T19:02:37Z</time></trkpt><trkpt lat="51.028849588547494" lon="2.3578256024636404"><ele>5.0</ele><time>2026-03-23T19:02:39Z</time></trkpt><trkpt lat="51.028827266302244" lon="2.357986536560156"><ele>5.0</ele><time>2026-03-23T19:02:42Z</time></trkpt><trkpt lat="51.02880368820471" lon="2.3581123149613745"><ele>5.0</ele><time>2026-03-23T19:02:44Z</time></trkpt><trkpt lat="51.02879835200219" lon="2.358225083555328"><ele>5.0</ele><time>2026-03-23T19:02:46Z</time></trkpt><trkpt lat="51.02875408641964" lon="2.3583210055157577"><ele>5.0</ele><time>2026-03-23T19:02:48Z</time></trkpt><trkpt lat="51.02868736242625" lon="2.3583929532954073"><ele>5.0</ele><time>2026-03-23T19:02:56Z</time></trkpt><trkpt lat="51.02866393542108" lon="2.3585200406866518"><ele>5.0</ele><time>2026-03-23T19:02:59.999Z</time></trkpt><trkpt lat="51.02866688124094" lon="2.3586477756549145"><ele>5.0</ele><time>2026-03-23T19:03:03.999Z</time></trkpt><trkpt lat="51.02866366458773" lon="2.358759260439403"><ele>5.0</ele><time>2026-03-23T19:03:06.999Z</time></trkpt><trkpt lat="51.02860012453393" lon="2.35884145814104"><ele>5.0</ele><time>2026-03-23T19:03:10.999Z</time></trkpt><trkpt lat="51.028548122963116" lon="2.3589023654513013"><ele>5.0</ele><time>2026-03-23T19:03:13.999Z</time></trkpt><trkpt lat="51.02847451862533" lon="2.358922850077673"><ele>5.0</ele><time>2026-03-23T19:03:16.999Z</time></trkpt><trkpt lat="51.02847772377747" lon="2.359030516492213"><ele>5.0</ele><time>2026-03-23T19:03:19.999Z</time></trkpt><trkpt lat="51.02850952168904" lon="2.359135050267044"><ele>4.857142857142857</ele><time>2026-03-23T19:03:21.999Z</time></trkpt><trkpt lat="51.02854893809979" lon="2.359218715858413"><ele>4.714285714285714</ele><time>2026-03-23T19:03:23.999Z</time></trkpt><trkpt lat="51.028578959057725" lon="2.3593195884007283"><ele>4.571428571428571</ele><time>2026-03-23T19:03:26.999Z</time></trkpt><trkpt lat="51.02860442683291" lon="2.359465316018583"><ele>4.428571428571429</ele><time>2026-03-23T19:03:29.999Z</time></trkpt><trkpt lat="51.028617029866915" lon="2.359570914303353"><ele>4.285714285714286</ele><time>2026-03-23T19:03:31.999Z</time></trkpt><trkpt lat="51.02859522618334" lon="2.359679478219558"><ele>4.142857142857142</ele><time>2026-03-23T19:03:33.999Z</time></trkpt><trkpt lat="51.02860212670709" lon="2.3598005545885523"><ele>4.0</ele><time>2026-03-23T19:03:35.999Z</time></trkpt><trkpt lat="51.02861666465624" lon="2.3599307305440673"><ele>4.0</ele><time>2026-03-23T19:03:39.999Z</time></trkpt><trkpt lat="51.028631500788116" lon="2.3600362065969906"><ele>3.9999999999999996</ele><time>2026-03-23T19:03:41.999Z</time></trkpt><trkpt lat="51.02866833227478" lon="2.3601463347267253"><ele>4.0</ele><time>2026-03-23T19:03:44.999Z</time></trkpt><trkpt lat="51.02865786821884" lon="2.3602683375352083"><ele>4.0</ele><time>2026-03-23T19:03:47.999Z</time></trkpt><trkpt lat="51.028664507486084" lon="2.360390356546328"><ele>3.9999999999999996</ele><time>2026-03-23T19:03:50.999Z</time></trkpt><trkpt lat="51.02869697006718" lon="2.3604912053385267"><ele>4.0</ele><time>2026-03-23T19:03:53.999Z</time></trkpt><trkpt lat="51.028664113046545" lon="2.360602140394702"><ele>4.0</ele><time>2026-03-23T19:03:55.999Z</time></trkpt><trkpt lat="51.02864238006289" lon="2.3607175519519146"><ele>3.9999999999999996</ele><time>2026-03-23T19:03:58.999Z</time></trkpt><trkpt lat="51.02873599865822" lon="2.3608310838326245"><ele>4.0</ele><time>2026-03-23T19:03:59.999Z</time></trkpt><trkpt lat="51.02869500808713" lon="2.360966022358149"><ele>4.0</ele><time>2026-03-23T19:04:00.999Z</time></trkpt><trkpt lat="51.02870853478576" lon="2.3610756670378654"><ele>4.0</ele><time>2026-03-23T19:04:01.999Z</time></trkpt><trkpt lat="51.02868600752125" lon="2.3611901834192626"><ele>3.9999999999999996</ele><time>2026-03-23T19:04:02.999Z</time></trkpt><trkpt lat="51.02871171111413" lon="2.3613272418714017"><ele>4.0</ele><time>2026-03-23T19:04:03.999Z</time></trkpt><trkpt lat="51.02871260660325" lon="2.361512196549543"><ele>3.9999999999999996</ele><time>2026-03-23T19:04:05.999Z</time></trkpt><trkpt lat="51.02871175925987" lon="2.361621341823382"><ele>4.0</ele><time>2026-03-23T19:04:08.999Z</time></trkpt><trkpt lat="51.028701831420804" lon="2.361726484995183"><ele>4.0</ele><time>2026-03-23T19:04:10.998Z</time></trkpt><trkpt lat="51.028639188279094" lon="2.361786587589956"><ele>4.0</ele><time>2026-03-23T19:04:17Z</time></trkpt><trkpt lat="51.02862553711447" lon="2.361892954059517"><ele>3.9999999999999996</ele><time>2026-03-23T19:04:22Z</time></trkpt><trkpt lat="51.02862229807273" lon="2.362058838348691"><ele>4.0</ele><time>2026-03-23T19:04:25Z</time></trkpt><trkpt lat="51.02862257369561" lon="2.3622107339684977"><ele>4.0</ele><time>2026-03-23T19:04:28Z</time></trkpt><trkpt lat="51.02863142170683" lon="2.3623381168446387"><ele>3.9999999999999996</ele><time>2026-03-23T19:04:30Z</time></trkpt><trkpt lat="51.028633632219424" lon="2.3624458372074413"><ele>4.0</ele><time>2026-03-23T19:04:32Z</time></trkpt><trkpt lat="51.028657798184504" lon="2.3625685074156726"><ele>4.0</ele><time>2026-03-23T19:04:34Z</time></trkpt><trkpt lat="51.028654036917274" lon="2.362677780695794"><ele>3.9999999999999996</ele><time>2026-03-23T19:04:36Z</time></trkpt><trkpt lat="51.028664213703145" lon="2.362777465607366"><ele>4.0</ele><time>2026-03-23T19:04:38Z</time></trkpt><trkpt lat="51.02869043824965" lon="2.362868579182664"><ele>4.0</ele><time>2026-03-23T19:04:40Z</time></trkpt><trkpt lat="51.02866175667825" lon="2.362959824333014"><ele>3.9999999999999996</ele><time>2026-03-23T19:04:43Z</time></trkpt><trkpt lat="51.02866937238818" lon="2.3630639406168235"><ele>4.0</ele><time>2026-03-23T19:04:46Z</time></trkpt><trkpt lat="51.0286323087624" lon="2.363162592813184"><ele>4.0</ele><time>2026-03-23T19:04:49Z</time></trkpt><trkpt lat="51.02866874650761" lon="2.363346362312326"><ele>4.0</ele><time>2026-03-23T19:04:52Z</time></trkpt><trkpt lat="51.028686551491724" lon="2.3634599305203032"><ele>3.9999999999999996</ele><time>2026-03-23T19:04:53Z</time></trkpt><trkpt lat="51.02869492811932" lon="2.3635859772489347"><ele>4.0</ele><time>2026-03-23T19:04:55Z</time></trkpt><trkpt lat="51.02869086622717" lon="2.363731410509891"><ele>4.0</ele><time>2026-03-23T19:04:58Z</time></trkpt><trkpt lat="51.02869466211804" lon="2.363850673102385"><ele>3.9999999999999996</ele><time>2026-03-23T19:05:00Z</time></trkpt><trkpt lat="51.02869728043533" lon="2.3639535531081126"><ele>4.0</ele><time>2026-03-23T19:05:02Z</time></trkpt><trkpt lat="51.02870648448807" lon="2.3640565974725867"><ele>4.0</ele><time>2026-03-23T19:05:03.999Z</time></trkpt><trkpt lat="51.028722180188" lon="2.364156404550133"><ele>3.9999999999999996</ele><time>2026-03-23T19:05:05.999Z</time></trkpt><trkpt lat="51.02874047891749" lon="2.3642654440898503"><ele>4.0</ele><time>2026-03-23T19:05:07.999Z</time></trkpt><trkpt lat="51.028738808114774" lon="2.3644027874763593"><ele>4.0</ele><time>2026-03-23T19:05:10.999Z</time></trkpt><trkpt lat="51.02873863779791" lon="2.364516274730223"><ele>3.714285714285714</ele><time>2026-03-23T19:05:13.999Z</time></trkpt><trkpt lat="51.02874265475519" lon="2.3646317750044457"><ele>3.428571428571428</ele><time>2026-03-23T19:05:16.999Z</time></trkpt><trkpt lat="51.02872581745876" lon="2.364749551563212"><ele>3.142857142857143</ele><time>2026-03-23T19:05:19.999Z</time></trkpt><trkpt lat="51.02870463027163" lon="2.3648583945531576"><ele>2.8571428571428568</ele><time>2026-03-23T19:05:23.999Z</time></trkpt><trkpt lat="51.028704646182014" lon="2.364959514998452"><ele>2.571428571428571</ele><time>2026-03-23T19:05:26.999Z</time></trkpt><trkpt lat="51.028691888650265" lon="2.3650680866068483"><ele>2.2857142857142856</ele><time>2026-03-23T19:05:29.999Z</time></trkpt><trkpt lat="51.02863518478313" lon="2.3651506287153614"><ele>2.0</ele><time>2026-03-23T19:05:32.999Z</time></trkpt><trkpt lat="51.02861541577412" lon="2.3652594621453082"><ele>1.8333333333333333</ele><time>2026-03-23T19:05:35.999Z</time></trkpt><trkpt lat="51.02867467248092" lon="2.3653559219165428"><ele>1.6666666666666665</ele><time>2026-03-23T19:05:38.999Z</time></trkpt><trkpt lat="51.02870041969391" lon="2.36546977129321"><ele>1.5</ele><time>2026-03-23T19:05:41.999Z</time></trkpt><trkpt lat="51.028729786033935" lon="2.3656108793323165"><ele>1.3333333333333333</ele><time>2026-03-23T19:05:44.999Z</time></trkpt><trkpt lat="51.028751653441226" lon="2.3657067594767587"><ele>1.1666666666666665</ele><time>2026-03-23T19:05:47.999Z</time></trkpt><trkpt lat="51.02876948332183" lon="2.3658418673228168"><ele>1.0</ele><time>2026-03-23T19:05:50.999Z</time></trkpt><trkpt lat="51.02878404910302" lon="2.3659661742524567"><ele>0.9999999999999999</ele><time>2026-03-23T19:05:53.999Z</time></trkpt><trkpt lat="51.028816780925595" lon="2.366112781061593"><ele>1.0</ele><time>2026-03-23T19:05:56.999Z</time></trkpt><trkpt lat="51.02883425224769" lon="2.3662294832161574"><ele>1.0</ele><time>2026-03-23T19:05:58.999Z</time></trkpt><trkpt lat="51.02885512475785" lon="2.3663516706387195"><ele>1.0</ele><time>2026-03-23T19:06:00.999Z</time></trkpt><trkpt lat="51.0288741044037" lon="2.3664980383225784"><ele>0.9999999999999999</ele><time>2026-03-23T19:06:02.999Z</time></trkpt><trkpt lat="51.02890207203997" lon="2.3666490162716"><ele>1.0</ele><time>2026-03-23T19:06:04.999Z</time></trkpt><trkpt lat="51.02893018391478" lon="2.366795234994909"><ele>1.3333333333333333</ele><time>2026-03-23T19:06:06.999Z</time></trkpt><trkpt lat="51.028958251914936" lon="2.3669384320191114"><ele>1.6666666666666665</ele><time>2026-03-23T19:06:08.999Z</time></trkpt><trkpt lat="51.02897849027362" lon="2.367085478298382"><ele>2.0</ele><time>2026-03-23T19:06:10.999Z</time></trkpt><trkpt lat="51.02901260049261" lon="2.3672222929582474"><ele>2.3333333333333335</ele><time>2026-03-23T19:06:12.999Z</time></trkpt><trkpt lat="51.029036311502125" lon="2.367342580631986"><ele>2.6666666666666665</ele><time>2026-03-23T19:06:14.998Z</time></trkpt><trkpt lat="51.02904649929928" lon="2.367467577466518"><ele>3.0</ele><time>2026-03-23T19:06:16.998Z</time></trkpt><trkpt lat="51.02907218903875" lon="2.3675842679335304"><ele>2.9999999999999996</ele><time>2026-03-23T19:06:19Z</time></trkpt><trkpt lat="51.0290923586065" lon="2.3677054616139475"><ele>3.0</ele><time>2026-03-23T19:06:21Z</time></trkpt><trkpt lat="51.029112862631386" lon="2.3678207696539895"><ele>3.0</ele><time>2026-03-23T19:06:23Z</time></trkpt><trkpt lat="51.029135228994946" lon="2.3679257017094217"><ele>3.0</ele><time>2026-03-23T19:06:25Z</time></trkpt><trkpt lat="51.02916034029988" lon="2.3680339392446736"><ele>3.0</ele><time>2026-03-23T19:06:27Z</time></trkpt><trkpt lat="51.02918224442202" lon="2.3681487289093894"><ele>2.9999999999999996</ele><time>2026-03-23T19:06:29Z</time></trkpt><trkpt lat="51.02920616783033" lon="2.3682536150142877"><ele>3.0</ele><time>2026-03-23T19:06:31Z</time></trkpt><trkpt lat="51.02922014980559" lon="2.3683592777179294"><ele>3.0</ele><time>2026-03-23T19:06:33Z</time></trkpt><trkpt lat="51.029223569283545" lon="2.368466895447629"><ele>3.0</ele><time>2026-03-23T19:06:35Z</time></trkpt><trkpt lat="51.02923589181145" lon="2.3685738660597315"><ele>3.0</ele><time>2026-03-23T19:06:37Z</time></trkpt><trkpt lat="51.02925094035582" lon="2.3687036186716877"><ele>3.0</ele><time>2026-03-23T19:06:40Z</time></trkpt><trkpt lat="51.029258597005885" lon="2.3688206128890394"><ele>3.0</ele><time>2026-03-23T19:06:43Z</time></trkpt><trkpt lat="51.029273168099266" lon="2.3689512633545866"><ele>3.0</ele><time>2026-03-23T19:06:46Z</time></trkpt><trkpt lat="51.02930448451663" lon="2.369062691568522"><ele>2.9999999999999996</ele><time>2026-03-23T19:06:50Z</time></trkpt><trkpt lat="51.02932380460007" lon="2.3691594153736113"><ele>3.0</ele><time>2026-03-23T19:06:52Z</time></trkpt><trkpt lat="51.02936793179255" lon="2.3692634672143256"><ele>3.0</ele><time>2026-03-23T19:06:54Z</time></trkpt><trkpt lat="51.02938213238944" lon="2.369373442061205"><ele>3.0</ele><time>2026-03-23T19:06:56Z</time></trkpt><trkpt lat="51.02942032924551" lon="2.369481353415522"><ele>3.0</ele><time>2026-03-23T19:06:58Z</time></trkpt><trkpt lat="51.02943817522045" lon="2.3695798690586103"><ele>2.9999999999999996</ele><time>2026-03-23T19:07:01Z</time></trkpt><trkpt lat="51.02948635839636" lon="2.36966713596455"><ele>3.0</ele><time>2026-03-23T19:07:04Z</time></trkpt><trkpt lat="51.02950642553206" lon="2.3697690321539513"><ele>3.0</ele><time>2026-03-23T19:07:06.999Z</time></trkpt><trkpt lat="51.02954452903348" lon="2.3698575676594213"><ele>3.0</ele><time>2026-03-23T19:07:08.999Z</time></trkpt><trkpt lat="51.02956260393657" lon="2.3699724082767237"><ele>3.0</ele><time>2026-03-23T19:07:11.999Z</time></trkpt><trkpt lat="51.029589543125" lon="2.3700780997347066"><ele>3.0</ele><time>2026-03-23T19:07:14.999Z</time></trkpt><trkpt lat="51.029614371266234" lon="2.370193359135064"><ele>3.0</ele><time>2026-03-23T19:07:18.999Z</time></trkpt><trkpt lat="51.029641839246715" lon="2.3703116301248373"><ele>3.0</ele><time>2026-03-23T19:07:23.999Z</time></trkpt><trkpt lat="51.029677324852145" lon="2.3704415268602004"><ele>3.1666666666666665</ele><time>2026-03-23T19:07:27.999Z</time></trkpt><trkpt lat="51.029697859943376" lon="2.3705599773094295"><ele>3.333333333333333</ele><time>2026-03-23T19:07:30.999Z</time></trkpt><trkpt lat="51.0297213707608" lon="2.370655376724205"><ele>3.5</ele><time>2026-03-23T19:07:33.999Z</time></trkpt><trkpt lat="51.029741968864144" lon="2.370770822680291"><ele>3.6666666666666665</ele><time>2026-03-23T19:07:37.999Z</time></trkpt><trkpt lat="51.02977129292989" lon="2.370863233951065"><ele>3.833333333333333</ele><time>2026-03-23T19:07:40.999Z</time></trkpt><trkpt lat="51.029814269757196" lon="2.370952967143837"><ele>4.0</ele><time>2026-03-23T19:07:44.999Z</time></trkpt><trkpt lat="51.02984434583686" lon="2.3711242355900346"><ele>4.0</ele><time>2026-03-23T19:07:50.999Z</time></trkpt><trkpt lat="51.029959259495584" lon="2.371163211226347"><ele>4.0</ele><time>2026-03-23T19:07:58.999Z</time></trkpt><trkpt lat="51.03004120055698" lon="2.3711814515482383"><ele>4.0</ele><time>2026-03-23T19:08:04.014Z</time></trkpt><trkpt lat="51.030151256166775" lon="2.3712179450819724"><ele>4.0</ele><time>2026-03-23T19:08:07.999Z</time></trkpt><trkpt lat="51.03022495770303" lon="2.3712061115582874"><ele>4.0</ele><time>2026-03-23T19:08:11.999Z</time></trkpt><trkpt lat="51.030297255354974" lon="2.371196518332912"><ele>4.4</ele><time>2026-03-23T19:08:15.998Z</time></trkpt><trkpt lat="51.03036380592701" lon="2.3711905023679316"><ele>4.800000000000001</ele><time>2026-03-23T19:08:17.998Z</time></trkpt><trkpt lat="51.03044991603688" lon="2.3711856082180414"><ele>5.199999999999999</ele><time>2026-03-23T19:08:20.998Z</time></trkpt><trkpt lat="51.03051601204522" lon="2.3711614286042972"><ele>5.6</ele><time>2026-03-23T19:08:24Z</time></trkpt><trkpt lat="51.030606264056175" lon="2.371143128804704"><ele>6.0</ele><time>2026-03-23T19:08:28Z</time></trkpt><trkpt lat="51.03073660742613" lon="2.3712476778385967"><ele>6.0</ele><time>2026-03-23T19:08:52Z</time></trkpt><trkpt lat="51.03074880333154" lon="2.371354915830454"><ele>6.0</ele><time>2026-03-23T19:09:00Z</time></trkpt><trkpt lat="51.030816323571436" lon="2.371422900809541"><ele>6.0</ele><time>2026-03-23T19:09:04Z</time></trkpt><trkpt lat="51.03085150454879" lon="2.371510095766239"><ele>6.0</ele><time>2026-03-23T19:09:07Z</time></trkpt><trkpt lat="51.03088155667503" lon="2.3716443708896207"><ele>6.0</ele><time>2026-03-23T19:09:11Z</time></trkpt><trkpt lat="51.030898636414584" lon="2.371779218800984"><ele>6.0</ele><time>2026-03-23T19:09:13.999Z</time></trkpt><trkpt lat="51.030925274615626" lon="2.3719135320978135"><ele>6.0</ele><time>2026-03-23T19:09:16.999Z</time></trkpt><trkpt lat="51.03095059739002" lon="2.372016162750536"><ele>6.0</ele><time>2026-03-23T19:09:19.999Z</time></trkpt><trkpt lat="51.030877207082156" lon="2.372276637460574"><ele>6.0</ele><time>2026-03-23T19:10:07.999Z</time></trkpt><trkpt lat="51.030894102381126" lon="2.372376632134043"><ele>6.0</ele><time>2026-03-23T19:10:12.999Z</time></trkpt><trkpt lat="51.03094288798804" lon="2.37246859896961"><ele>6.0</ele><time>2026-03-23T19:10:15.999Z</time></trkpt><trkpt lat="51.03111687097525" lon="2.372477581279628"><ele>6.0</ele><time>2026-03-23T19:10:21.999Z</time></trkpt><trkpt lat="51.03116849465606" lon="2.3723937632323744"><ele>6.0</ele><time>2026-03-23T19:10:23.998Z</time></trkpt><trkpt lat="51.03119265075556" lon="2.3722837657508338"><ele>6.0</ele><time>2026-03-23T19:10:25.998Z</time></trkpt><trkpt lat="51.03138069275636" lon="2.3722764790480704"><ele>6.0</ele><time>2026-03-23T19:10:30Z</time></trkpt><trkpt lat="51.0314507829108" lon="2.3722310059381018"><ele>6.0</ele><time>2026-03-23T19:10:32Z</time></trkpt><trkpt lat="51.0315356067887" lon="2.3722007142403307"><ele>6.0</ele><time>2026-03-23T19:10:34Z</time></trkpt><trkpt lat="51.031619941249694" lon="2.372162695950529"><ele>6.0</ele><time>2026-03-23T19:10:36Z</time></trkpt><trkpt lat="51.031691878168594" lon="2.372139865981527"><ele>6.0</ele><time>2026-03-23T19:10:38Z</time></trkpt><trkpt lat="51.03176380098493" lon="2.3721196392554513"><ele>6.0</ele><time>2026-03-23T19:10:40Z</time></trkpt><trkpt lat="51.0318479489115" lon="2.3720845471569265"><ele>6.0</ele><time>2026-03-23T19:10:44Z</time></trkpt><trkpt lat="51.03186793139607" lon="2.3721973908150873"><ele>6.0</ele><time>2026-03-23T19:10:47Z</time></trkpt><trkpt lat="51.0319230670084" lon="2.372249250423994"><ele>6.166666666666667</ele><time>2026-03-23T19:10:50Z</time></trkpt><trkpt lat="51.03200487475449" lon="2.3722527989305875"><ele>6.333333333333334</ele><time>2026-03-23T19:10:53Z</time></trkpt><trkpt lat="51.03207907276919" lon="2.3721627038323443"><ele>6.5</ele><time>2026-03-23T19:10:56Z</time></trkpt><trkpt lat="51.03211766587007" lon="2.372057683275835"><ele>6.666666666666667</ele><time>2026-03-23T19:10:59Z</time></trkpt><trkpt lat="51.03217811148603" lon="2.372020194244547"><ele>6.833333333333334</ele><time>2026-03-23T19:11:05Z</time></trkpt><trkpt lat="51.032214403939044" lon="2.371936657269352"><ele>7.0</ele><time>2026-03-23T19:11:08Z</time></trkpt><trkpt lat="51.03220853644912" lon="2.371821494290294"><ele>7.0</ele><time>2026-03-23T19:11:11Z</time></trkpt><trkpt lat="51.032220336232456" lon="2.3717130167002023"><ele>7.0</ele><time>2026-03-23T19:11:14Z</time></trkpt><trkpt lat="51.03229020228566" lon="2.371711763492195"><ele>7.0</ele><time>2026-03-23T19:11:18Z</time></trkpt><trkpt lat="51.032358336850926" lon="2.3717218331903376"><ele>7.0</ele><time>2026-03-23T19:11:20.999Z</time></trkpt><trkpt lat="51.032427191187196" lon="2.3717624114314546"><ele>7.0</ele><time>2026-03-23T19:11:23.999Z</time></trkpt><trkpt lat="51.03249553665392" lon="2.371799060248963"><ele>7.0</ele><time>2026-03-23T19:11:26.999Z</time></trkpt><trkpt lat="51.03256925034211" lon="2.3718299801789744"><ele>7.0</ele><time>2026-03-23T19:11:29.999Z</time></trkpt><trkpt lat="51.03265901125663" lon="2.37182329535427"><ele>6.75</ele><time>2026-03-23T19:11:33.999Z</time></trkpt><trkpt lat="51.0327796394707" lon="2.371735111525064"><ele>6.5</ele><time>2026-03-23T19:11:39.999Z</time></trkpt><trkpt lat="51.032986546674486" lon="2.37173068549132"><ele>6.25</ele><time>2026-03-23T19:11:47.999Z</time></trkpt><trkpt lat="51.033072352142376" lon="2.3717457743201065"><ele>6.0</ele><time>2026-03-23T19:11:50.999Z</time></trkpt><trkpt lat="51.033135015942534" lon="2.3717581206711666"><ele>6.0</ele><time>2026-03-23T19:11:52.999Z</time></trkpt><trkpt lat="51.033297968346034" lon="2.3717859037878775"><ele>6.0</ele><time>2026-03-23T19:11:57.999Z</time></trkpt><trkpt lat="51.03336070050001" lon="2.371801358953137"><ele>6.0</ele><time>2026-03-23T19:11:59.999Z</time></trkpt><trkpt lat="51.03349445969921" lon="2.371816927521423"><ele>6.0</ele><time>2026-03-23T19:12:04.999Z</time></trkpt><trkpt lat="51.033577217461826" lon="2.371837738171415"><ele>6.0</ele><time>2026-03-23T19:12:07.999Z</time></trkpt><trkpt lat="51.03366426258422" lon="2.3718535450211937"><ele>6.166666666666667</ele><time>2026-03-23T19:12:10.999Z</time></trkpt><trkpt lat="51.03375225522976" lon="2.371879724632006"><ele>6.333333333333334</ele><time>2026-03-23T19:12:13.999Z</time></trkpt><trkpt lat="51.033864914302775" lon="2.371922555279624"><ele>6.5</ele><time>2026-03-23T19:12:17.999Z</time></trkpt><trkpt lat="51.03394719168468" lon="2.3719388607159275"><ele>6.666666666666667</ele><time>2026-03-23T19:12:20.999Z</time></trkpt><trkpt lat="51.03401448546356" lon="2.371986107187575"><ele>6.833333333333334</ele><time>2026-03-23T19:12:23.999Z</time></trkpt><trkpt lat="51.034093592375385" lon="2.372012254480259"><ele>7.0</ele><time>2026-03-23T19:12:26.999Z</time></trkpt><trkpt lat="51.03417943237365" lon="2.3720559886844717"><ele>7.3999999999999995</ele><time>2026-03-23T19:12:29.999Z</time></trkpt><trkpt lat="51.03426480154653" lon="2.3720770384911796"><ele>7.799999999999999</ele><time>2026-03-23T19:12:32.998Z</time></trkpt><trkpt lat="51.034346544864235" lon="2.3721138507378496"><ele>8.2</ele><time>2026-03-23T19:12:36Z</time></trkpt><trkpt lat="51.0344331239006" lon="2.3721461821095815"><ele>8.6</ele><time>2026-03-23T19:12:39Z</time></trkpt><trkpt lat="51.034565293881" lon="2.3721591899698726"><ele>9.0</ele><time>2026-03-23T19:12:43Z</time></trkpt><trkpt lat="51.03463274480186" lon="2.3721747172854557"><ele>8.5</ele><time>2026-03-23T19:12:45Z</time></trkpt><trkpt lat="51.03469870657739" lon="2.3721957742760766"><ele>8.0</ele><time>2026-03-23T19:12:47Z</time></trkpt><trkpt lat="51.034769384479084" lon="2.3722319124624076"><ele>7.5</ele><time>2026-03-23T19:12:49Z</time></trkpt><trkpt lat="51.03483452453172" lon="2.3722457903187526"><ele>7.0</ele><time>2026-03-23T19:12:51Z</time></trkpt><trkpt lat="51.03491250749127" lon="2.372301681452614"><ele>6.5</ele><time>2026-03-23T19:12:54Z</time></trkpt><trkpt lat="51.03499077568018" lon="2.372337049348283"><ele>6.0</ele><time>2026-03-23T19:12:57Z</time></trkpt><trkpt lat="51.035074086103165" lon="2.3723889701130583"><ele>5.8</ele><time>2026-03-23T19:13:00Z</time></trkpt><trkpt lat="51.03516116930669" lon="2.3724127374598183"><ele>5.6</ele><time>2026-03-23T19:13:03Z</time></trkpt><trkpt lat="51.03524568873783" lon="2.3724340872592955"><ele>5.4</ele><time>2026-03-23T19:13:06Z</time></trkpt><trkpt lat="51.03531637714914" lon="2.3724227501331354"><ele>5.2</ele><time>2026-03-23T19:13:09Z</time></trkpt><trkpt lat="51.035431211983266" lon="2.372418630863848"><ele>5.0</ele><time>2026-03-23T19:13:16Z</time></trkpt><trkpt lat="51.03557525209346" lon="2.3724469146091294"><ele>5.0</ele><time>2026-03-23T19:13:22Z</time></trkpt><trkpt lat="51.03564673016049" lon="2.372496975103392"><ele>5.0</ele><time>2026-03-23T19:13:25Z</time></trkpt><trkpt lat="51.03571139976808" lon="2.372526211828353"><ele>5.0</ele><time>2026-03-23T19:13:28.999Z</time></trkpt><trkpt lat="51.03577940146352" lon="2.3725745449606066"><ele>5.0</ele><time>2026-03-23T19:13:31.999Z</time></trkpt><trkpt lat="51.03585247712596" lon="2.3726347141953563"><ele>5.0</ele><time>2026-03-23T19:13:34.999Z</time></trkpt><trkpt lat="51.03591740929028" lon="2.372696523672274"><ele>5.0</ele><time>2026-03-23T19:13:37.999Z</time></trkpt><trkpt lat="51.035989845372605" lon="2.372743561511356"><ele>5.5</ele><time>2026-03-23T19:13:40.999Z</time></trkpt><trkpt lat="51.036058975692356" lon="2.3728172965566205"><ele>6.0</ele><time>2026-03-23T19:13:43.999Z</time></trkpt><trkpt lat="51.03610728688654" lon="2.372888453293544"><ele>6.5</ele><time>2026-03-23T19:13:46.999Z</time></trkpt><trkpt lat="51.03616337740846" lon="2.372969127749902"><ele>7.0</ele><time>2026-03-23T19:13:49.999Z</time></trkpt><trkpt lat="51.036230514930686" lon="2.373039739857179"><ele>7.499999999999999</ele><time>2026-03-23T19:13:52.999Z</time></trkpt><trkpt lat="51.03628110389512" lon="2.3731207640186933"><ele>8.0</ele><time>2026-03-23T19:13:55.999Z</time></trkpt><trkpt lat="51.03634633265523" lon="2.3731714464899265"><ele>8.0</ele><time>2026-03-23T19:13:58.999Z</time></trkpt><trkpt lat="51.03640516199759" lon="2.3732099255851447"><ele>7.999999999999999</ele><time>2026-03-23T19:14:01.999Z</time></trkpt><trkpt lat="51.03646403047421" lon="2.373253547277847"><ele>8.0</ele><time>2026-03-23T19:14:04.999Z</time></trkpt><trkpt lat="51.03654764338938" lon="2.373297637538507"><ele>8.0</ele><time>2026-03-23T19:14:07.999Z</time></trkpt><trkpt lat="51.036626347756204" lon="2.373316741365978"><ele>7.999999999999999</ele><time>2026-03-23T19:14:09.999Z</time></trkpt><trkpt lat="51.036686051065004" lon="2.373363110523132"><ele>8.0</ele><time>2026-03-23T19:14:11.999Z</time></trkpt><trkpt lat="51.03674876496759" lon="2.373390203408194"><ele>8.0</ele><time>2026-03-23T19:14:13.999Z</time></trkpt><trkpt lat="51.03682804307493" lon="2.3734386533282925"><ele>7.333333333333333</ele><time>2026-03-23T19:14:16.999Z</time></trkpt><trkpt lat="51.03690229349732" lon="2.3734816177426032"><ele>6.666666666666666</ele><time>2026-03-23T19:14:19.999Z</time></trkpt><trkpt lat="51.03696515278004" lon="2.373513073866454"><ele>6.0</ele><time>2026-03-23T19:14:22.999Z</time></trkpt><trkpt lat="51.037027482569755" lon="2.3735880642250953"><ele>5.333333333333333</ele><time>2026-03-23T19:14:26.999Z</time></trkpt><trkpt lat="51.037090993621966" lon="2.3736448579938045"><ele>4.666666666666666</ele><time>2026-03-23T19:14:29.999Z</time></trkpt><trkpt lat="51.037165463365255" lon="2.3737116139448564"><ele>4.0</ele><time>2026-03-23T19:14:32.999Z</time></trkpt><trkpt lat="51.03722499208638" lon="2.3737928620184436"><ele>3.9999999999999996</ele><time>2026-03-23T19:14:35.999Z</time></trkpt><trkpt lat="51.03728903047058" lon="2.3738521726934874"><ele>4.0</ele><time>2026-03-23T19:14:37.998Z</time></trkpt><trkpt lat="51.03735611063889" lon="2.3739054007728146"><ele>4.0</ele><time>2026-03-23T19:14:39.998Z</time></trkpt><trkpt lat="51.03741727668398" lon="2.3739725241764096"><ele>4.0</ele><time>2026-03-23T19:14:42Z</time></trkpt><trkpt lat="51.03748121837522" lon="2.374041286165808"><ele>3.9999999999999996</ele><time>2026-03-23T19:14:44Z</time></trkpt><trkpt lat="51.03754483458537" lon="2.3740783897169786"><ele>4.0</ele><time>2026-03-23T19:14:46Z</time></trkpt><trkpt lat="51.037625284835" lon="2.3741569490410965"><ele>3.833333333333333</ele><time>2026-03-23T19:14:49Z</time></trkpt><trkpt lat="51.03769090032798" lon="2.3742518992034034"><ele>3.6666666666666665</ele><time>2026-03-23T19:14:52Z</time></trkpt><trkpt lat="51.03775105769948" lon="2.374338695635697"><ele>3.5</ele><time>2026-03-23T19:14:55Z</time></trkpt><trkpt lat="51.037811424911176" lon="2.374405477600939"><ele>3.333333333333333</ele><time>2026-03-23T19:14:58Z</time></trkpt><trkpt lat="51.03786425864242" lon="2.374463980680687"><ele>3.1666666666666665</ele><time>2026-03-23T19:15:01Z</time></trkpt><trkpt lat="51.037887126037695" lon="2.3745684322790646"><ele>3.0</ele><time>2026-03-23T19:15:05Z</time></trkpt><trkpt lat="51.03794984181701" lon="2.374652585259246"><ele>3.666666666666667</ele><time>2026-03-23T19:15:08Z</time></trkpt><trkpt lat="51.03800028237094" lon="2.3747377642258014"><ele>4.333333333333334</ele><time>2026-03-23T19:15:11Z</time></trkpt><trkpt lat="51.03804483118329" lon="2.3748132578227295"><ele>5.0</ele><time>2026-03-23T19:15:13Z</time></trkpt><trkpt lat="51.03809990672512" lon="2.374920327351931"><ele>5.666666666666667</ele><time>2026-03-23T19:15:16Z</time></trkpt><trkpt lat="51.03815455352003" lon="2.375031197260062"><ele>6.333333333333334</ele><time>2026-03-23T19:15:19Z</time></trkpt><trkpt lat="51.03821126661848" lon="2.3751070106335366"><ele>7.0</ele><time>2026-03-23T19:15:21Z</time></trkpt><trkpt lat="51.03824895680991" lon="2.37519503711692"><ele>7.0</ele><time>2026-03-23T19:15:23Z</time></trkpt><trkpt lat="51.03829644417463" lon="2.3752986160651695"><ele>7.0</ele><time>2026-03-23T19:15:26Z</time></trkpt><trkpt lat="51.038342416176164" lon="2.375399918547689"><ele>7.0</ele><time>2026-03-23T19:15:28Z</time></trkpt><trkpt lat="51.0383783290769" lon="2.3754905724352238"><ele>7.0</ele><time>2026-03-23T19:15:30Z</time></trkpt><trkpt lat="51.03842178223709" lon="2.375574887169482"><ele>7.0</ele><time>2026-03-23T19:15:32.999Z</time></trkpt><trkpt lat="51.038413116999095" lon="2.3756803193012104"><ele>7.0</ele><time>2026-03-23T19:15:34.999Z</time></trkpt><trkpt lat="51.03841475370455" lon="2.3757934520814037"><ele>7.0</ele><time>2026-03-23T19:15:37.999Z</time></trkpt><trkpt lat="51.03843234860295" lon="2.3759138731834017"><ele>7.0</ele><time>2026-03-23T19:15:40.999Z</time></trkpt><trkpt lat="51.03846235610307" lon="2.376042895852735"><ele>7.0</ele><time>2026-03-23T19:15:43.999Z</time></trkpt><trkpt lat="51.03848999033275" lon="2.3761833881643217"><ele>7.0</ele><time>2026-03-23T19:15:46.999Z</time></trkpt><trkpt lat="51.03851759875727" lon="2.376274651915665"><ele>7.0</ele><time>2026-03-23T19:15:48.999Z</time></trkpt><trkpt lat="51.03854182033511" lon="2.3763855925985373"><ele>7.0</ele><time>2026-03-23T19:15:51.999Z</time></trkpt><trkpt lat="51.03857145457233" lon="2.3764796622280917"><ele>7.0</ele><time>2026-03-23T19:15:54.999Z</time></trkpt><trkpt lat="51.03860017250562" lon="2.376573980874311"><ele>7.0</ele><time>2026-03-23T19:15:56.999Z</time></trkpt><trkpt lat="51.038640935760405" lon="2.376704030020599"><ele>7.000000000000001</ele><time>2026-03-23T19:15:59.999Z</time></trkpt><trkpt lat="51.03866812781106" lon="2.3768490830050375"><ele>7.0</ele><time>2026-03-23T19:16:02.999Z</time></trkpt><trkpt lat="51.03869103229494" lon="2.376970288710348"><ele>7.0</ele><time>2026-03-23T19:16:04.999Z</time></trkpt><trkpt lat="51.038716884329105" lon="2.3770719960368516"><ele>7.0</ele><time>2026-03-23T19:16:06.999Z</time></trkpt><trkpt lat="51.038736181476736" lon="2.3772275552989344"><ele>7.000000000000001</ele><time>2026-03-23T19:16:09.999Z</time></trkpt><trkpt lat="51.038759600994" lon="2.3773642264862915"><ele>7.0</ele><time>2026-03-23T19:16:13.999Z</time></trkpt><trkpt lat="51.03879910764357" lon="2.3774726716953114"><ele>8.0</ele><time>2026-03-23T19:16:17.999Z</time></trkpt><trkpt lat="51.03884646463159" lon="2.3775582439588967"><ele>9.0</ele><time>2026-03-23T19:16:20.999Z</time></trkpt><trkpt lat="51.03890266147358" lon="2.3776516453970182"><ele>10.0</ele><time>2026-03-23T19:16:23.999Z</time></trkpt><trkpt lat="51.03895548252095" lon="2.377740131537216"><ele>11.0</ele><time>2026-03-23T19:16:26.999Z</time></trkpt><trkpt lat="51.03902098666078" lon="2.377815074292805"><ele>11.999999999999998</ele><time>2026-03-23T19:16:29.999Z</time></trkpt><trkpt lat="51.03908282526515" lon="2.3778956846127035"><ele>13.0</ele><time>2026-03-23T19:16:32.999Z</time></trkpt><trkpt lat="51.0391242100047" lon="2.3779795746681924"><ele>12.333333333333332</ele><time>2026-03-23T19:16:34.999Z</time></trkpt><trkpt lat="51.03916164563198" lon="2.378080477075884"><ele>11.666666666666666</ele><time>2026-03-23T19:16:37.999Z</time></trkpt><trkpt lat="51.03921533864133" lon="2.378170906787151"><ele>11.0</ele><time>2026-03-23T19:16:40.999Z</time></trkpt><trkpt lat="51.03929724785211" lon="2.37824955678483"><ele>10.333333333333332</ele><time>2026-03-23T19:16:43.998Z</time></trkpt><trkpt lat="51.03937128840121" lon="2.3783092027061175"><ele>9.666666666666666</ele><time>2026-03-23T19:16:46.998Z</time></trkpt><trkpt lat="51.03945114194311" lon="2.3783231864456362"><ele>9.0</ele><time>2026-03-23T19:16:50Z</time></trkpt><trkpt lat="51.03951991514941" lon="2.37833696372933"><ele>9.0</ele><time>2026-03-23T19:16:52Z</time></trkpt><trkpt lat="51.03960700234535" lon="2.378377327751077"><ele>9.0</ele><time>2026-03-23T19:16:54Z</time></trkpt><trkpt lat="51.039687774714025" lon="2.3784393985591152"><ele>9.0</ele><time>2026-03-23T19:16:56Z</time></trkpt><trkpt lat="51.03974265844377" lon="2.3785517145077564"><ele>9.0</ele><time>2026-03-23T19:16:58Z</time></trkpt><trkpt lat="51.03981824666871" lon="2.378649839185506"><ele>9.0</ele><time>2026-03-23T19:17:00Z</time></trkpt><trkpt lat="51.039866476551005" lon="2.3787399201243193"><ele>9.0</ele><time>2026-03-23T19:17:02Z</time></trkpt><trkpt lat="51.03994071898956" lon="2.3787659014150666"><ele>8.333333333333334</ele><time>2026-03-23T19:17:04Z</time></trkpt><trkpt lat="51.040027975021715" lon="2.378702817182055"><ele>7.666666666666667</ele><time>2026-03-23T19:17:06Z</time></trkpt><trkpt lat="51.04009565984525" lon="2.3786544499707003"><ele>7.0</ele><time>2026-03-23T19:17:08Z</time></trkpt><trkpt lat="51.04020557784101" lon="2.3786113840848624"><ele>6.333333333333334</ele><time>2026-03-23T19:17:10Z</time></trkpt><trkpt lat="51.04027226991533" lon="2.3785753885424747"><ele>5.666666666666667</ele><time>2026-03-23T19:17:11Z</time></trkpt><trkpt lat="51.04034676172306" lon="2.3785506907037375"><ele>5.0</ele><time>2026-03-23T19:17:13Z</time></trkpt><trkpt lat="51.04041869156101" lon="2.378540878871204"><ele>5.0</ele><time>2026-03-23T19:17:15Z</time></trkpt><trkpt lat="51.04059568140236" lon="2.378539630661499"><ele>5.0</ele><time>2026-03-23T19:17:20Z</time></trkpt><trkpt lat="51.040662545986976" lon="2.378549843134167"><ele>5.0</ele><time>2026-03-23T19:17:22Z</time></trkpt><trkpt lat="51.040736701872014" lon="2.37853319091117"><ele>5.0</ele><time>2026-03-23T19:17:24Z</time></trkpt><trkpt lat="51.040855037456026" lon="2.37850280232574"><ele>5.0</ele><time>2026-03-23T19:17:28Z</time></trkpt><trkpt lat="51.04092830956827" lon="2.3784791392313633"><ele>4.8</ele><time>2026-03-23T19:17:31Z</time></trkpt><trkpt lat="51.0410308899325" lon="2.3784431636229244"><ele>4.6</ele><time>2026-03-23T19:17:37.999Z</time></trkpt><trkpt lat="51.041078177561396" lon="2.378525964521858"><ele>4.4</ele><time>2026-03-23T19:17:41.999Z</time></trkpt><trkpt lat="51.04118120206682" lon="2.378524211142912"><ele>4.2</ele><time>2026-03-23T19:17:44.999Z</time></trkpt><trkpt lat="51.04126414936343" lon="2.378490119144162"><ele>4.0</ele><time>2026-03-23T19:17:48.999Z</time></trkpt><trkpt lat="51.041338678786" lon="2.378397242119806"><ele>4.0</ele><time>2026-03-23T19:17:51.999Z</time></trkpt><trkpt lat="51.04151123179061" lon="2.378337222080819"><ele>4.0</ele><time>2026-03-23T19:17:57.999Z</time></trkpt><trkpt lat="51.04153585398376" lon="2.3781695031104397"><ele>4.0</ele><time>2026-03-23T19:18:00.999Z</time></trkpt><trkpt lat="51.041710437766675" lon="2.378257906367289"><ele>4.166666666666666</ele><time>2026-03-23T19:18:09.999Z</time></trkpt><trkpt lat="51.041749466982566" lon="2.378349520185342"><ele>4.333333333333333</ele><time>2026-03-23T19:18:11.999Z</time></trkpt><trkpt lat="51.04180548674917" lon="2.378420191730038"><ele>4.5</ele><time>2026-03-23T19:18:13.999Z</time></trkpt><trkpt lat="51.04185533497382" lon="2.3785151719563817"><ele>4.666666666666667</ele><time>2026-03-23T19:18:16.999Z</time></trkpt><trkpt lat="51.04189046200034" lon="2.378601150841904"><ele>4.833333333333334</ele><time>2026-03-23T19:18:20.999Z</time></trkpt><trkpt lat="51.04198829429156" lon="2.378595167013704"><ele>5.0</ele><time>2026-03-23T19:18:28.999Z</time></trkpt><trkpt lat="51.042046109608066" lon="2.3783871425736507"><ele>5.0</ele><time>2026-03-23T19:18:34.999Z</time></trkpt></trkseg></trk></gpx>